Observation data for New Home on 01/12/2018      Previous  Date  Next       Current Mesonet Observations  Soil Data  Daily Summary Page  Observations in Plain Language
KNH1 120600Z 05003KT M01/M10 A3029 RMK A01 T10061104  RH  047%=      5-min Rain = 0
KNH1 120601Z 05003KT M01/M10 A3029 RMK A01 T10061104  RH  048%=      5-min Rain = 0
KNH1 120602Z 05003KT M01/M10 A3029 RMK A01 T10061103  RH  048%=      5-min Rain = 0
KNH1 120603Z 05003KT M01/M10 A3029 RMK A01 T10071104  RH  048%=      5-min Rain = 0
KNH1 120604Z 05004KT M01/M10 A3029 RMK A01 T10081104  RH  048%=      5-min Rain = 0
KNH1 120605Z 05003KT M01/M10 A3029 RMK A01 T10081104  RH  048%=      5-min Rain = 0
KNH1 120606Z 05003KT M01/M10 A3029 RMK A01 T10091103  RH  049%=      5-min Rain = 0
KNH1 120607Z 05003KT M01/M10 A3029 RMK A01 T10091103  RH  049%=      5-min Rain = 0
KNH1 120608Z 05003KT M01/M10 A3029 RMK A01 T10091103  RH  049%=      5-min Rain = 0
KNH1 120609Z 04003KT M01/M10 A3029 RMK A01 T10101103  RH  049%=      5-min Rain = 0
KNH1 120610Z 05003KT M01/M10 A3029 RMK A01 T10101103  RH  049%=      5-min Rain = 0
KNH1 120611Z 05003KT M01/M10 A3029 RMK A01 T10111103  RH  050%=      5-min Rain = 0
KNH1 120612Z 05003KT M01/M10 A3029 RMK A01 T10111102  RH  050%=      5-min Rain = 0
KNH1 120613Z 05003KT M01/M10 A3029 RMK A01 T10111102  RH  050%=      5-min Rain = 0
KNH1 120614Z 05003KT M01/M10 A3029 RMK A01 T10121102  RH  051%=      5-min Rain = 0
KNH1 120615Z 05003KT M01/M10 A3029 RMK A01 T10141102  RH  051%=      5-min Rain = 0
KNH1 120616Z 05003KT M02/M10 A3029 RMK A01 T10161103  RH  052%=      5-min Rain = 0
KNH1 120617Z 06003KT M02/M10 A3029 RMK A01 T10181103  RH  052%=      5-min Rain = 0
KNH1 120618Z 06004KT M02/M10 A3029 RMK A01 T10201103  RH  053%=      5-min Rain = 0
KNH1 120619Z 05004KT M02/M10 A3029 RMK A01 T10211102  RH  054%=      5-min Rain = 0
KNH1 120620Z 05004KT M02/M10 A3029 RMK A01 T10231102  RH  055%=      5-min Rain = 0
KNH1 120621Z 05003KT M02/M10 A3029 RMK A01 T10241103  RH  055%=      5-min Rain = 0
KNH1 120622Z 05003KT M03/M10 A3029 RMK A01 T10251103  RH  055%=      5-min Rain = 0
KNH1 120623Z 05003KT M02/M10 A3029 RMK A01 T10241104  RH  054%=      5-min Rain = 0
KNH1 120624Z 05003KT M02/M10 A3029 RMK A01 T10241104  RH  054%=      5-min Rain = 0
KNH1 120625Z 05003KT M02/M11 A3029 RMK A01 T10241106  RH  053%=      5-min Rain = 0
KNH1 120626Z 05003KT M03/M11 A3029 RMK A01 T10251106  RH  054%=      5-min Rain = 0
KNH1 120627Z 05003KT M03/M11 A3029 RMK A01 T10261106  RH  054%=      5-min Rain = 0
KNH1 120628Z 05003KT M03/M11 A3028 RMK A01 T10271105  RH  055%=      5-min Rain = 0
KNH1 120629Z 05003KT M03/M11 A3028 RMK A01 T10281105  RH  055%=      5-min Rain = 0
KNH1 120630Z 05003KT M03/M11 A3028 RMK A01 T10291106  RH  055%=      5-min Rain = 0
KNH1 120631Z 06003KT M03/M11 A3028 RMK A01 T10291106  RH  056%=      5-min Rain = 0
KNH1 120632Z 06002KT M03/M11 A3028 RMK A01 T10301105  RH  056%=      5-min Rain = 0
KNH1 120633Z 06002KT M03/M10 A3028 RMK A01 T10311104  RH  057%=      5-min Rain = 0
KNH1 120634Z 06002KT M03/M10 A3028 RMK A01 T10301104  RH  057%=      5-min Rain = 0
KNH1 120635Z 07002KT M03/M11 A3028 RMK A01 T10301105  RH  056%=      5-min Rain = 0
KNH1 120636Z 07001KT M03/M11 A3028 RMK A01 T10291105  RH  056%=      5-min Rain = 0
KNH1 120637Z 07001KT M03/M10 A3028 RMK A01 T10291104  RH  056%=      5-min Rain = 0
KNH1 120638Z 06002KT M03/M10 A3028 RMK A01 T10281104  RH  056%=      5-min Rain = 0
KNH1 120639Z 06002KT M03/M11 A3028 RMK A01 T10281105  RH  055%=      5-min Rain = 0
KNH1 120640Z 06002KT M03/M11 A3028 RMK A01 T10281106  RH  055%=      5-min Rain = 0
KNH1 120641Z 06002KT M03/M11 A3028 RMK A01 T10281108  RH  054%=      5-min Rain = 0
KNH1 120642Z 05002KT M03/M11 A3028 RMK A01 T10291112  RH  053%=      5-min Rain = 0
KNH1 120643Z 05002KT M03/M12 A3028 RMK A01 T10301115  RH  052%=      5-min Rain = 0
KNH1 120644Z 05002KT M03/M12 A3028 RMK A01 T10321117  RH  052%=      5-min Rain = 0
KNH1 120645Z 05001KT M03/M12 A3028 RMK A01 T10331118  RH  052%=      5-min Rain = 0
KNH1 120646Z 05001KT M03/M12 A3028 RMK A01 T10341119  RH  052%=      5-min Rain = 0
KNH1 120647Z 05001KT M04/M12 A3028 RMK A01 T10361120  RH  052%=      5-min Rain = 0
KNH1 120648Z 06001KT M04/M12 A3028 RMK A01 T10371121  RH  052%=      5-min Rain = 0
KNH1 120649Z 06001KT M04/M12 A3028 RMK A01 T10381123  RH  052%=      5-min Rain = 0
KNH1 120650Z 06001KT M04/M12 A3028 RMK A01 T10401124  RH  052%=      5-min Rain = 0
KNH1 120651Z 06001KT M04/M12 A3028 RMK A01 T10411124  RH  052%=      5-min Rain = 0
KNH1 120652Z 06001KT M04/M13 A3028 RMK A01 T10421125  RH  052%=      5-min Rain = 0
KNH1 120653Z 06001KT M04/M13 A3028 RMK A01 T10431125  RH  053%=      5-min Rain = 0
KNH1 120654Z 07001KT M04/M13 A3028 RMK A01 T10431125  RH  053%=      5-min Rain = 0
KNH1 120655Z 07001KT M04/M12 A3028 RMK A01 T10441124  RH  053%=      5-min Rain = 0
KNH1 120656Z 07001KT M04/M12 A3028 RMK A01 T10441124  RH  054%=      5-min Rain = 0
KNH1 120657Z 08001KT M04/M12 A3028 RMK A01 T10441123  RH  054%=      5-min Rain = 0
KNH1 120658Z 09001KT M04/M12 A3027 RMK A01 T10421120  RH  055%=      5-min Rain = 0
KNH1 120659Z 09001KT M04/M12 A3027 RMK A01 T10401118  RH  055%=      5-min Rain = 0
KNH1 120700Z 09001KT M04/M12 A3027 RMK A01 T10401119  RH  054%=      5-min Rain = 0
KNH1 120701Z 11001KT M04/M12 A3027 RMK A01 T10401119  RH  054%=      5-min Rain = 0
KNH1 120702Z 11000KT M04/M12 A3027 RMK A01 T10391119  RH  054%=      5-min Rain = 0
KNH1 120703Z 11000KT M04/M12 A3027 RMK A01 T10391119  RH  054%=      5-min Rain = 0
KNH1 120704Z 11001KT M04/M12 A3027 RMK A01 T10391119  RH  054%=      5-min Rain = 0
KNH1 120705Z 11001KT M04/M12 A3027 RMK A01 T10391118  RH  054%=      5-min Rain = 0
KNH1 120706Z 10001KT M04/M12 A3027 RMK A01 T10381117  RH  054%=      5-min Rain = 0
KNH1 120707Z 10001KT M04/M12 A3027 RMK A01 T10371117  RH  054%=      5-min Rain = 0
KNH1 120708Z 10001KT M04/M12 A3027 RMK A01 T10371117  RH  054%=      5-min Rain = 0
KNH1 120709Z 10002KT M04/M12 A3026 RMK A01 T10371116  RH  054%=      5-min Rain = 0
KNH1 120710Z 09002KT M04/M12 A3026 RMK A01 T10371116  RH  054%=      5-min Rain = 0
KNH1 120711Z 09001KT M04/M12 A3026 RMK A01 T10371115  RH  054%=      5-min Rain = 0
KNH1 120712Z 09001KT M04/M12 A3026 RMK A01 T10371116  RH  055%=      5-min Rain = 0
KNH1 120713Z 10001KT M04/M12 A3026 RMK A01 T10371115  RH  055%=      5-min Rain = 0
KNH1 120714Z 11001KT M04/M11 A3026 RMK A01 T10381114  RH  055%=      5-min Rain = 0
KNH1 120715Z 12001KT M04/M12 A3026 RMK A01 T10381115  RH  055%=      5-min Rain = 0
KNH1 120716Z 12001KT M04/M12 A3026 RMK A01 T10381116  RH  055%=      5-min Rain = 0
KNH1 120717Z 11002KT M04/M12 A3026 RMK A01 T10381116  RH  055%=      5-min Rain = 0
KNH1 120718Z 11002KT M04/M12 A3026 RMK A01 T10371115  RH  055%=      5-min Rain = 0
KNH1 120719Z 11002KT M04/M11 A3026 RMK A01 T10351113  RH  055%=      5-min Rain = 0
KNH1 120720Z 10002KT M04/M11 A3026 RMK A01 T10351112  RH  055%=      5-min Rain = 0
KNH1 120721Z 11002KT M04/M11 A3026 RMK A01 T10351113  RH  055%=      5-min Rain = 0
KNH1 120722Z 10002KT M04/M11 A3026 RMK A01 T10351114  RH  055%=      5-min Rain = 0
KNH1 120723Z 11002KT M04/M11 A3026 RMK A01 T10351113  RH  055%=      5-min Rain = 0
KNH1 120724Z 11002KT M04/M11 A3026 RMK A01 T10351114  RH  054%=      5-min Rain = 0
KNH1 120725Z 12001KT M04/M12 A3026 RMK A01 T10361115  RH  054%=      5-min Rain = 0
KNH1 120726Z 13001KT M04/M11 A3027 RMK A01 T10371114  RH  055%=      5-min Rain = 0
KNH1 120727Z 13001KT M04/M11 A3027 RMK A01 T10361114  RH  055%=      5-min Rain = 0
KNH1 120728Z 13001KT M04/M11 A3027 RMK A01 T10361114  RH  055%=      5-min Rain = 0
KNH1 120729Z 13001KT M04/M11 A3026 RMK A01 T10361114  RH  055%=      5-min Rain = 0
KNH1 120730Z 13001KT M04/M11 A3026 RMK A01 T10361114  RH  055%=      5-min Rain = 0
KNH1 120731Z 13001KT M04/M11 A3026 RMK A01 T10351114  RH  054%=      5-min Rain = 0
KNH1 120732Z 13001KT M04/M11 A3026 RMK A01 T10351114  RH  054%=      5-min Rain = 0
KNH1 120733Z 13001KT M04/M12 A3027 RMK A01 T10351115  RH  054%=      5-min Rain = 0
KNH1 120734Z 13001KT M04/M12 A3027 RMK A01 T10351115  RH  054%=      5-min Rain = 0
KNH1 120735Z 14001KT M04/M11 A3027 RMK A01 T10351114  RH  054%=      5-min Rain = 0
KNH1 120736Z 14001KT M03/M11 A3027 RMK A01 T10341114  RH  054%=      5-min Rain = 0
KNH1 120737Z 14001KT M04/M12 A3027 RMK A01 T10351115  RH  054%=      5-min Rain = 0
KNH1 120738Z 14001KT M04/M12 A3027 RMK A01 T10351115  RH  054%=      5-min Rain = 0
KNH1 120739Z 14001KT M04/M12 A3027 RMK A01 T10351115  RH  054%=      5-min Rain = 0
KNH1 120740Z 15001KT M04/M11 A3027 RMK A01 T10351114  RH  054%=      5-min Rain = 0
KNH1 120741Z 15000KT M04/M11 A3027 RMK A01 T10351114  RH  055%=      5-min Rain = 0
KNH1 120742Z 00000KT M04/M12 A3027 RMK A01 T10361115  RH  054%=      5-min Rain = 0
KNH1 120743Z 00000KT M04/M12 A3027 RMK A01 T10371118  RH  053%=      5-min Rain = 0
KNH1 120744Z 00000KT M04/M12 A3027 RMK A01 T10381121  RH  053%=      5-min Rain = 0
KNH1 120745Z 00000KT M04/M12 A3027 RMK A01 T10411123  RH  053%=      5-min Rain = 0
KNH1 120746Z 00000KT M04/M13 A3027 RMK A01 T10431125  RH  053%=      5-min Rain = 0
KNH1 120747Z 00000KT M04/M13 A3027 RMK A01 T10441125  RH  053%=      5-min Rain = 0
KNH1 120748Z 00000KT M05/M13 A3027 RMK A01 T10461126  RH  053%=      5-min Rain = 0
KNH1 120749Z 00000KT M05/M13 A3027 RMK A01 T10471126  RH  054%=      5-min Rain = 0
KNH1 120750Z 00000KT M05/M13 A3027 RMK A01 T10481128  RH  054%=      5-min Rain = 0
KNH1 120751Z 00000KT M05/M13 A3027 RMK A01 T10501129  RH  054%=      5-min Rain = 0
KNH1 120752Z 00000KT M05/M13 A3027 RMK A01 T10511128  RH  055%=      5-min Rain = 0
KNH1 120753Z 00000KT M05/M13 A3027 RMK A01 T10511128  RH  055%=      5-min Rain = 0
KNH1 120754Z 00000KT M05/M13 A3027 RMK A01 T10511128  RH  055%=      5-min Rain = 0
KNH1 120755Z 00000KT M05/M13 A3027 RMK A01 T10521130  RH  054%=      5-min Rain = 0
KNH1 120756Z 00000KT M05/M13 A3027 RMK A01 T10521130  RH  055%=      5-min Rain = 0
KNH1 120757Z 00000KT M05/M13 A3027 RMK A01 T10531130  RH  054%=      5-min Rain = 0
KNH1 120758Z 15000KT M05/M13 A3027 RMK A01 T10531131  RH  054%=      5-min Rain = 0
KNH1 120759Z 18000KT M05/M13 A3027 RMK A01 T10541132  RH  054%=      5-min Rain = 0
KNH1 120800Z 28001KT M05/M13 A3027 RMK A01 T10541131  RH  055%=      5-min Rain = 0
KNH1 120801Z 28001KT M05/M13 A3027 RMK A01 T10541129  RH  056%=      5-min Rain = 0
KNH1 120802Z 28001KT M05/M13 A3027 RMK A01 T10541127  RH  056%=      5-min Rain = 0
KNH1 120803Z 27002KT M06/M13 A3027 RMK A01 T10551126  RH  057%=      5-min Rain = 0
KNH1 120804Z 27001KT M05/M12 A3027 RMK A01 T10541124  RH  058%=      5-min Rain = 0
KNH1 120805Z 27002KT M05/M12 A3027 RMK A01 T10521122  RH  058%=      5-min Rain = 0
KNH1 120806Z 27002KT M05/M12 A3027 RMK A01 T10521124  RH  057%=      5-min Rain = 0
KNH1 120807Z 27002KT M05/M12 A3027 RMK A01 T10521124  RH  057%=      5-min Rain = 0
KNH1 120808Z 27002KT M05/M12 A3027 RMK A01 T10521124  RH  057%=      5-min Rain = 0
KNH1 120809Z 27001KT M05/M12 A3027 RMK A01 T10511124  RH  057%=      5-min Rain = 0
KNH1 120810Z 27002KT M05/M12 A3027 RMK A01 T10511123  RH  057%=      5-min Rain = 0
KNH1 120811Z 26002KT M05/M12 A3027 RMK A01 T10511123  RH  057%=      5-min Rain = 0
KNH1 120812Z 26002KT M05/M12 A3027 RMK A01 T10501123  RH  057%=      5-min Rain = 0
KNH1 120813Z 26003KT M05/M12 A3027 RMK A01 T10501123  RH  057%=      5-min Rain = 0
KNH1 120814Z 26003KT M05/M12 A3027 RMK A01 T10501123  RH  057%=      5-min Rain = 0
KNH1 120815Z 26002KT M05/M12 A3027 RMK A01 T10501123  RH  057%=      5-min Rain = 0
KNH1 120816Z 26002KT M05/M12 A3027 RMK A01 T10501124  RH  056%=      5-min Rain = 0
KNH1 120817Z 26002KT M05/M12 A3028 RMK A01 T10491124  RH  056%=      5-min Rain = 0
KNH1 120818Z 26002KT M05/M13 A3028 RMK A01 T10501126  RH  055%=      5-min Rain = 0
KNH1 120819Z 25002KT M05/M13 A3028 RMK A01 T10501126  RH  055%=      5-min Rain = 0
KNH1 120820Z 25003KT M05/M13 A3028 RMK A01 T10501126  RH  055%=      5-min Rain = 0
KNH1 120821Z 25003KT M05/M13 A3028 RMK A01 T10501127  RH  055%=      5-min Rain = 0
KNH1 120822Z 25002KT M05/M13 A3028 RMK A01 T10501128  RH  054%=      5-min Rain = 0
KNH1 120823Z 25002KT M05/M13 A3027 RMK A01 T10501128  RH  054%=      5-min Rain = 0
KNH1 120824Z 25002KT M05/M13 A3027 RMK A01 T10501128  RH  055%=      5-min Rain = 0
KNH1 120825Z 26002KT M05/M13 A3027 RMK A01 T10511129  RH  054%=      5-min Rain = 0
KNH1 120826Z 26002KT M05/M13 A3027 RMK A01 T10511129  RH  055%=      5-min Rain = 0
KNH1 120827Z 26002KT M05/M13 A3027 RMK A01 T10511128  RH  055%=      5-min Rain = 0
KNH1 120828Z 27002KT M05/M13 A3027 RMK A01 T10511127  RH  055%=      5-min Rain = 0
KNH1 120829Z 27002KT M05/M13 A3027 RMK A01 T10521125  RH  056%=      5-min Rain = 0
KNH1 120830Z 27002KT M05/M13 A3027 RMK A01 T10521125  RH  056%=      5-min Rain = 0
KNH1 120831Z 27002KT M05/M12 A3027 RMK A01 T10511124  RH  056%=      5-min Rain = 0
KNH1 120832Z 26002KT M05/M12 A3027 RMK A01 T10501124  RH  056%=      5-min Rain = 0
KNH1 120833Z 26002KT M05/M12 A3027 RMK A01 T10501124  RH  056%=      5-min Rain = 0
KNH1 120834Z 26002KT M05/M12 A3027 RMK A01 T10491123  RH  056%=      5-min Rain = 0
KNH1 120835Z 26002KT M05/M12 A3027 RMK A01 T10481121  RH  057%=      5-min Rain = 0
KNH1 120836Z 25003KT M05/M12 A3027 RMK A01 T10481122  RH  056%=      5-min Rain = 0
KNH1 120837Z 25003KT M05/M13 A3027 RMK A01 T10481125  RH  055%=      5-min Rain = 0
KNH1 120838Z 25003KT M05/M13 A3027 RMK A01 T10491126  RH  055%=      5-min Rain = 0
KNH1 120839Z 25003KT M05/M13 A3027 RMK A01 T10501127  RH  055%=      5-min Rain = 0
KNH1 120840Z 25003KT M05/M13 A3027 RMK A01 T10511128  RH  055%=      5-min Rain = 0
KNH1 120841Z 25003KT M05/M13 A3027 RMK A01 T10521128  RH  055%=      5-min Rain = 0
KNH1 120842Z 25003KT M05/M13 A3027 RMK A01 T10521127  RH  056%=      5-min Rain = 0
KNH1 120843Z 25003KT M05/M13 A3027 RMK A01 T10521126  RH  056%=      5-min Rain = 0
KNH1 120844Z 25002KT M05/M13 A3027 RMK A01 T10521126  RH  056%=      5-min Rain = 0
KNH1 120845Z 25002KT M05/M13 A3027 RMK A01 T10521126  RH  056%=      5-min Rain = 0
KNH1 120846Z 25002KT M05/M13 A3027 RMK A01 T10511126  RH  056%=      5-min Rain = 0
KNH1 120847Z 25002KT M05/M13 A3027 RMK A01 T10521127  RH  056%=      5-min Rain = 0
KNH1 120848Z 25002KT M05/M13 A3027 RMK A01 T10521127  RH  056%=      5-min Rain = 0
KNH1 120849Z 25002KT M05/M13 A3027 RMK A01 T10521127  RH  056%=      5-min Rain = 0
KNH1 120850Z 25002KT M05/M13 A3027 RMK A01 T10531127  RH  056%=      5-min Rain = 0
KNH1 120851Z 25002KT M05/M13 A3027 RMK A01 T10531127  RH  056%=      5-min Rain = 0
KNH1 120852Z 25001KT M05/M13 A3027 RMK A01 T10531126  RH  057%=      5-min Rain = 0
KNH1 120853Z 25001KT M05/M13 A3027 RMK A01 T10531125  RH  057%=      5-min Rain = 0
KNH1 120854Z 25001KT M05/M12 A3027 RMK A01 T10531124  RH  057%=      5-min Rain = 0
KNH1 120855Z 25001KT M05/M12 A3027 RMK A01 T10531124  RH  057%=      5-min Rain = 0
KNH1 120856Z 25002KT M05/M12 A3027 RMK A01 T10531124  RH  057%=      5-min Rain = 0
KNH1 120857Z 25002KT M05/M12 A3027 RMK A01 T10521124  RH  057%=      5-min Rain = 0
KNH1 120858Z 25002KT M05/M12 A3027 RMK A01 T10521123  RH  057%=      5-min Rain = 0
KNH1 120859Z 25002KT M05/M12 A3027 RMK A01 T10511123  RH  057%=      5-min Rain = 0
KNH1 120900Z 25002KT M05/M12 A3027 RMK A01 T10501121  RH  057%=      5-min Rain = 0
KNH1 120901Z 25002KT M05/M12 A3027 RMK A01 T10491119  RH  058%=      5-min Rain = 0
KNH1 120902Z 25002KT M05/M12 A3027 RMK A01 T10481119  RH  057%=      5-min Rain = 0
KNH1 120903Z 25002KT M05/M12 A3027 RMK A01 T10481121  RH  057%=      5-min Rain = 0
KNH1 120904Z 26001KT M05/M12 A3027 RMK A01 T10481122  RH  056%=      5-min Rain = 0
KNH1 120905Z 27001KT M05/M12 A3027 RMK A01 T10481122  RH  056%=      5-min Rain = 0
KNH1 120906Z 28001KT M05/M12 A3027 RMK A01 T10491122  RH  057%=      5-min Rain = 0
KNH1 120907Z 29001KT M05/M12 A3026 RMK A01 T10501122  RH  057%=      5-min Rain = 0
KNH1 120908Z 27001KT M05/M12 A3026 RMK A01 T10511121  RH  058%=      5-min Rain = 0
KNH1 120909Z 26001KT M05/M12 A3026 RMK A01 T10511121  RH  058%=      5-min Rain = 0
KNH1 120910Z 25002KT M05/M12 A3026 RMK A01 T10511120  RH  059%=      5-min Rain = 0
KNH1 120911Z 25002KT M05/M12 A3026 RMK A01 T10501118  RH  059%=      5-min Rain = 0
KNH1 120912Z 25002KT M05/M12 A3026 RMK A01 T10491117  RH  059%=      5-min Rain = 0
KNH1 120913Z 25002KT M05/M12 A3026 RMK A01 T10491117  RH  059%=      5-min Rain = 0
KNH1 120914Z 25002KT M05/M12 A3026 RMK A01 T10481117  RH  058%=      5-min Rain = 0
KNH1 120915Z 24002KT M05/M12 A3026 RMK A01 T10481117  RH  058%=      5-min Rain = 0
KNH1 120916Z 24002KT M05/M12 A3026 RMK A01 T10471116  RH  058%=      5-min Rain = 0
KNH1 120917Z 24001KT M05/M12 A3026 RMK A01 T10461115  RH  059%=      5-min Rain = 0
KNH1 120918Z 24001KT M05/M11 A3026 RMK A01 T10451114  RH  059%=      5-min Rain = 0
KNH1 120919Z 24001KT M05/M12 A3026 RMK A01 T10461115  RH  058%=      5-min Rain = 0
KNH1 120920Z 24001KT M05/M12 A3026 RMK A01 T10471116  RH  059%=      5-min Rain = 0
KNH1 120921Z 24001KT M05/M12 A3026 RMK A01 T10481115  RH  059%=      5-min Rain = 0
KNH1 120922Z 24001KT M05/M12 A3026 RMK A01 T10481116  RH  059%=      5-min Rain = 0
KNH1 120923Z 24001KT M05/M12 A3026 RMK A01 T10481116  RH  059%=      5-min Rain = 0
KNH1 120924Z 24000KT M05/M12 A3026 RMK A01 T10481116  RH  059%=      5-min Rain = 0
KNH1 120925Z 00000KT M05/M12 A3026 RMK A01 T10481117  RH  059%=      5-min Rain = 0
KNH1 120926Z 00000KT M05/M12 A3025 RMK A01 T10481118  RH  058%=      5-min Rain = 0
KNH1 120927Z 00000KT M05/M12 A3025 RMK A01 T10491118  RH  059%=      5-min Rain = 0
KNH1 120928Z 00000KT M05/M12 A3025 RMK A01 T10491117  RH  059%=      5-min Rain = 0
KNH1 120929Z 00000KT M05/M12 A3025 RMK A01 T10491115  RH  060%=      5-min Rain = 0
KNH1 120930Z 00000KT M05/M12 A3025 RMK A01 T10481115  RH  060%=      5-min Rain = 0
KNH1 120931Z 00000KT M05/M12 A3025 RMK A01 T10481115  RH  060%=      5-min Rain = 0
KNH1 120932Z 29000KT M05/M12 A3025 RMK A01 T10491115  RH  060%=      5-min Rain = 0
KNH1 120933Z 28000KT M05/M11 A3025 RMK A01 T10491114  RH  060%=      5-min Rain = 0
KNH1 120934Z 25001KT M05/M11 A3025 RMK A01 T10491114  RH  060%=      5-min Rain = 0
KNH1 120935Z 25001KT M05/M11 A3025 RMK A01 T10481113  RH  060%=      5-min Rain = 0
KNH1 120936Z 25001KT M05/M12 A3025 RMK A01 T10481115  RH  059%=      5-min Rain = 0
KNH1 120937Z 25000KT M05/M12 A3025 RMK A01 T10481115  RH  059%=      5-min Rain = 0
KNH1 120938Z 19001KT M05/M11 A3025 RMK A01 T10471113  RH  060%=      5-min Rain = 0
KNH1 120939Z 17002KT M05/M11 A3025 RMK A01 T10451112  RH  060%=      5-min Rain = 0
KNH1 120940Z 16002KT M05/M11 A3025 RMK A01 T10451111  RH  060%=      5-min Rain = 0
KNH1 120941Z 14002KT M04/M11 A3025 RMK A01 T10441109  RH  060%=      5-min Rain = 0
KNH1 120942Z 14003KT M04/M11 A3025 RMK A01 T10421107  RH  061%=      5-min Rain = 0
KNH1 120943Z 13003KT M04/M11 A3025 RMK A01 T10401105  RH  060%=      5-min Rain = 0
KNH1 120944Z 13004KT M04/M11 A3025 RMK A01 T10371105  RH  059%=      5-min Rain = 0
KNH1 120945Z 13004KT M04/M11 A3025 RMK A01 T10361107  RH  058%=      5-min Rain = 0
KNH1 120946Z 12004KT M04/M11 A3025 RMK A01 T10361109  RH  057%=      5-min Rain = 0
KNH1 120947Z 13003KT M04/M11 A3025 RMK A01 T10371110  RH  057%=      5-min Rain = 0
KNH1 120948Z 12003KT M04/M11 A3025 RMK A01 T10371110  RH  057%=      5-min Rain = 0
KNH1 120949Z 12003KT M04/M11 A3025 RMK A01 T10381110  RH  057%=      5-min Rain = 0
KNH1 120950Z 13002KT M04/M11 A3025 RMK A01 T10381110  RH  058%=      5-min Rain = 0
KNH1 120951Z 14002KT M04/M11 A3025 RMK A01 T10381111  RH  057%=      5-min Rain = 0
KNH1 120952Z 19002KT M04/M12 A3025 RMK A01 T10431119  RH  055%=      5-min Rain = 0
KNH1 120953Z 20002KT M05/M12 A3024 RMK A01 T10461122  RH  055%=      5-min Rain = 0
KNH1 120954Z 19002KT M05/M12 A3024 RMK A01 T10481122  RH  056%=      5-min Rain = 0
KNH1 120955Z 19002KT M05/M12 A3024 RMK A01 T10461115  RH  059%=      5-min Rain = 0
KNH1 120956Z 18002KT M04/M11 A3024 RMK A01 T10411108  RH  060%=      5-min Rain = 0
KNH1 120957Z 18002KT M04/M11 A3024 RMK A01 T10381106  RH  059%=      5-min Rain = 0
KNH1 120958Z 18002KT M04/M11 A3024 RMK A01 T10371106  RH  059%=      5-min Rain = 0
KNH1 120959Z 18003KT M04/M11 A3024 RMK A01 T10361107  RH  058%=      5-min Rain = 0
KNH1 121000Z 18003KT M04/M11 A3024 RMK A01 T10351107  RH  057%=      5-min Rain = 0
KNH1 121001Z 18003KT M03/M11 A3024 RMK A01 T10341107  RH  057%=      5-min Rain = 0
KNH1 121002Z 17003KT M03/M11 A3024 RMK A01 T10341108  RH  057%=      5-min Rain = 0
KNH1 121003Z 17003KT M03/M11 A3024 RMK A01 T10341108  RH  057%=      5-min Rain = 0
KNH1 121004Z 17002KT M04/M11 A3024 RMK A01 T10351109  RH  057%=      5-min Rain = 0
KNH1 121005Z 18002KT M04/M11 A3024 RMK A01 T10371110  RH  057%=      5-min Rain = 0
KNH1 121006Z 18003KT M04/M11 A3024 RMK A01 T10381111  RH  057%=      5-min Rain = 0
KNH1 121007Z 18003KT M04/M11 A3024 RMK A01 T10381110  RH  058%=      5-min Rain = 0
KNH1 121008Z 20003KT M04/M11 A3024 RMK A01 T10391110  RH  058%=      5-min Rain = 0
KNH1 121009Z 21003KT M04/M11 A3024 RMK A01 T10401113  RH  057%=      5-min Rain = 0
KNH1 121010Z 23003KT M04/M12 A3024 RMK A01 T10431120  RH  055%=      5-min Rain = 0
KNH1 121011Z 23003KT M05/M13 A3024 RMK A01 T10491129  RH  053%=      5-min Rain = 0
KNH1 121012Z 23003KT M05/M13 A3024 RMK A01 T10531134  RH  053%=      5-min Rain = 0
KNH1 121013Z 22003KT M06/M14 A3024 RMK A01 T10561135  RH  054%=      5-min Rain = 0
KNH1 121014Z 21004KT M06/M14 A3024 RMK A01 T10581135  RH  055%=      5-min Rain = 0
KNH1 121015Z 21005KT M06/M14 A3024 RMK A01 T10601135  RH  056%=      5-min Rain = 0
KNH1 121016Z 21004KT M06/M13 A3024 RMK A01 T10611134  RH  057%=      5-min Rain = 0
KNH1 121017Z 22004KT M06/M13 A3024 RMK A01 T10611131  RH  058%=      5-min Rain = 0
KNH1 121018Z 24004KT M06/M13 A3024 RMK A01 T10601129  RH  058%=      5-min Rain = 0
KNH1 121019Z 23004KT M06/M13 A3024 RMK A01 T10601130  RH  058%=      5-min Rain = 0
KNH1 121020Z 22004KT M06/M13 A3024 RMK A01 T10601131  RH  057%=      5-min Rain = 0
KNH1 121021Z 22004KT M06/M13 A3024 RMK A01 T10611133  RH  057%=      5-min Rain = 0
KNH1 121022Z 23004KT M06/M13 A3024 RMK A01 T10621134  RH  057%=      5-min Rain = 0
KNH1 121023Z 22003KT M06/M13 A3024 RMK A01 T10631134  RH  057%=      5-min Rain = 0
KNH1 121024Z 22003KT M06/M13 A3024 RMK A01 T10631132  RH  058%=      5-min Rain = 0
KNH1 121025Z 22003KT M06/M13 A3024 RMK A01 T10631132  RH  058%=      5-min Rain = 0
KNH1 121026Z 22003KT M06/M13 A3024 RMK A01 T10641133  RH  058%=      5-min Rain = 0
KNH1 121027Z 22003KT M06/M13 A3024 RMK A01 T10641132  RH  058%=      5-min Rain = 0
KNH1 121028Z 22003KT M06/M13 A3024 RMK A01 T10641131  RH  059%=      5-min Rain = 0
KNH1 121029Z 22003KT M06/M13 A3024 RMK A01 T10641131  RH  059%=      5-min Rain = 0
KNH1 121030Z 22003KT M07/M13 A3024 RMK A01 T10651132  RH  059%=      5-min Rain = 0
KNH1 121031Z 24003KT M07/M13 A3024 RMK A01 T10651131  RH  060%=      5-min Rain = 0
KNH1 121032Z 24003KT M07/M13 A3024 RMK A01 T10651130  RH  060%=      5-min Rain = 0
KNH1 121033Z 23004KT M07/M13 A3024 RMK A01 T10651130  RH  060%=      5-min Rain = 0
KNH1 121034Z 23004KT M06/M13 A3024 RMK A01 T10641130  RH  059%=      5-min Rain = 0
KNH1 121035Z 24004KT M06/M13 A3024 RMK A01 T10631130  RH  059%=      5-min Rain = 0
KNH1 121036Z 24005KT M06/M13 A3024 RMK A01 T10621129  RH  059%=      5-min Rain = 0
KNH1 121037Z 24004KT M06/M13 A3024 RMK A01 T10611129  RH  059%=      5-min Rain = 0
KNH1 121038Z 24004KT M06/M13 A3024 RMK A01 T10611129  RH  059%=      5-min Rain = 0
KNH1 121039Z 23003KT M06/M13 A3024 RMK A01 T10621129  RH  059%=      5-min Rain = 0
KNH1 121040Z 22003KT M06/M13 A3024 RMK A01 T10611126  RH  060%=      5-min Rain = 0
KNH1 121041Z 21003KT M06/M12 A3024 RMK A01 T10601123  RH  061%=      5-min Rain = 0
KNH1 121042Z 20004KT M06/M12 A3024 RMK A01 T10571121  RH  061%=      5-min Rain = 0
KNH1 121043Z 20003KT M06/M12 A3023 RMK A01 T10551118  RH  061%=      5-min Rain = 0
KNH1 121044Z 20003KT M05/M12 A3024 RMK A01 T10531117  RH  061%=      5-min Rain = 0
KNH1 121045Z 20003KT M05/M12 A3024 RMK A01 T10521117  RH  060%=      5-min Rain = 0
KNH1 121046Z 20004KT M05/M12 A3024 RMK A01 T10511117  RH  060%=      5-min Rain = 0
KNH1 121047Z 20004KT M05/M12 A3024 RMK A01 T10501119  RH  059%=      5-min Rain = 0
KNH1 121048Z 19004KT M05/M12 A3024 RMK A01 T10521122  RH  058%=      5-min Rain = 0
KNH1 121049Z 18004KT M05/M12 A3024 RMK A01 T10531124  RH  057%=      5-min Rain = 0
KNH1 121050Z 17004KT M05/M12 A3024 RMK A01 T10541124  RH  058%=      5-min Rain = 0
KNH1 121051Z 16004KT M05/M12 A3024 RMK A01 T10541122  RH  059%=      5-min Rain = 0
KNH1 121052Z 17003KT M05/M12 A3024 RMK A01 T10541121  RH  059%=      5-min Rain = 0
KNH1 121053Z 17003KT M05/M12 A3024 RMK A01 T10541121  RH  059%=      5-min Rain = 0
KNH1 121054Z 16004KT M05/M12 A3024 RMK A01 T10541120  RH  060%=      5-min Rain = 0
KNH1 121055Z 17003KT M05/M12 A3024 RMK A01 T10531119  RH  060%=      5-min Rain = 0
KNH1 121056Z 17003KT M05/M12 A3024 RMK A01 T10521120  RH  059%=      5-min Rain = 0
KNH1 121057Z 17003KT M05/M12 A3024 RMK A01 T10521122  RH  058%=      5-min Rain = 0
KNH1 121058Z 17003KT M05/M12 A3024 RMK A01 T10521123  RH  057%=      5-min Rain = 0
KNH1 121059Z 18003KT M05/M12 A3024 RMK A01 T10531124  RH  057%=      5-min Rain = 0
KNH1 121100Z 18003KT M05/M12 A3024 RMK A01 T10531123  RH  058%=      5-min Rain = 0
KNH1 121101Z 18003KT M05/M12 A3024 RMK A01 T10531124  RH  057%=      5-min Rain = 0
KNH1 121102Z 18003KT M05/M13 A3024 RMK A01 T10541126  RH  057%=      5-min Rain = 0
KNH1 121103Z 18003KT M06/M13 A3024 RMK A01 T10551126  RH  057%=      5-min Rain = 0
KNH1 121104Z 17003KT M06/M13 A3024 RMK A01 T10571128  RH  057%=      5-min Rain = 0
KNH1 121105Z 18003KT M06/M13 A3024 RMK A01 T10581128  RH  058%=      5-min Rain = 0
KNH1 121106Z 18003KT M06/M13 A3024 RMK A01 T10581126  RH  058%=      5-min Rain = 0
KNH1 121107Z 18004KT M06/M13 A3024 RMK A01 T10581126  RH  059%=      5-min Rain = 0
KNH1 121108Z 18004KT M06/M13 A3024 RMK A01 T10571126  RH  058%=      5-min Rain = 0
KNH1 121109Z 18004KT M06/M13 A3024 RMK A01 T10581127  RH  058%=      5-min Rain = 0
KNH1 121110Z 18004KT M06/M13 A3024 RMK A01 T10581126  RH  059%=      5-min Rain = 0
KNH1 121111Z 18003KT M06/M12 A3024 RMK A01 T10571124  RH  059%=      5-min Rain = 0
KNH1 121112Z 18003KT M06/M12 A3024 RMK A01 T10571124  RH  059%=      5-min Rain = 0
KNH1 121113Z 17002KT M06/M13 A3024 RMK A01 T10561125  RH  059%=      5-min Rain = 0
KNH1 121114Z 17003KT M06/M13 A3024 RMK A01 T10571126  RH  058%=      5-min Rain = 0
KNH1 121115Z 17003KT M06/M13 A3024 RMK A01 T10581127  RH  058%=      5-min Rain = 0
KNH1 121116Z 17003KT M06/M13 A3024 RMK A01 T10581126  RH  059%=      5-min Rain = 0
KNH1 121117Z 17003KT M06/M13 A3024 RMK A01 T10591125  RH  059%=      5-min Rain = 0
KNH1 121118Z 17004KT M06/M13 A3024 RMK A01 T10591125  RH  059%=      5-min Rain = 0
KNH1 121119Z 17004KT M06/M13 A3024 RMK A01 T10591125  RH  060%=      5-min Rain = 0
KNH1 121120Z 17004KT M06/M12 A3024 RMK A01 T10591123  RH  060%=      5-min Rain = 0
KNH1 121121Z 17004KT M06/M12 A3024 RMK A01 T10581123  RH  060%=      5-min Rain = 0
KNH1 121122Z 17004KT M06/M12 A3024 RMK A01 T10581123  RH  060%=      5-min Rain = 0
KNH1 121123Z 17005KT M06/M12 A3024 RMK A01 T10581122  RH  060%=      5-min Rain = 0
KNH1 121124Z 17005KT M06/M12 A3024 RMK A01 T10551119  RH  061%=      5-min Rain = 0
KNH1 121125Z 17005KT M05/M12 A3024 RMK A01 T10541119  RH  060%=      5-min Rain = 0
KNH1 121126Z 17005KT M05/M12 A3024 RMK A01 T10541119  RH  060%=      5-min Rain = 0
KNH1 121127Z 16005KT M05/M12 A3024 RMK A01 T10521117  RH  060%=      5-min Rain = 0
KNH1 121128Z 16005KT M05/M11 A3024 RMK A01 T10501114  RH  061%=      5-min Rain = 0
KNH1 121129Z 16004KT M05/M11 A3024 RMK A01 T10481113  RH  060%=      5-min Rain = 0
KNH1 121130Z 16005KT M05/M11 A3024 RMK A01 T10471114  RH  060%=      5-min Rain = 0
KNH1 121131Z 16005KT M05/M11 A3024 RMK A01 T10471114  RH  059%=      5-min Rain = 0
KNH1 121132Z 16005KT M05/M12 A3024 RMK A01 T10461115  RH  059%=      5-min Rain = 0
KNH1 121133Z 16005KT M05/M11 A3024 RMK A01 T10461114  RH  059%=      5-min Rain = 0
KNH1 121134Z 16005KT M05/M12 A3024 RMK A01 T10461115  RH  058%=      5-min Rain = 0
KNH1 121135Z 15004KT M05/M12 A3024 RMK A01 T10471116  RH  059%=      5-min Rain = 0
KNH1 121136Z 16005KT M05/M12 A3024 RMK A01 T10471116  RH  059%=      5-min Rain = 0
KNH1 121137Z 16005KT M05/M12 A3024 RMK A01 T10471115  RH  059%=      5-min Rain = 0
KNH1 121138Z 16005KT M05/M11 A3024 RMK A01 T10471114  RH  059%=      5-min Rain = 0
KNH1 121139Z 17006KT M05/M11 A3024 RMK A01 T10461114  RH  059%=      5-min Rain = 0
KNH1 121140Z 17006KT M05/M12 A3024 RMK A01 T10461115  RH  058%=      5-min Rain = 0
KNH1 121141Z 17006KT M05/M11 A3024 RMK A01 T10451114  RH  059%=      5-min Rain = 0
KNH1 121142Z 17006KT M05/M11 A3024 RMK A01 T10451114  RH  059%=      5-min Rain = 0
KNH1 121143Z 17006KT M05/M11 A3024 RMK A01 T10451114  RH  058%=      5-min Rain = 0
KNH1 121144Z 17005KT M05/M11 A3024 RMK A01 T10451114  RH  058%=      5-min Rain = 0
KNH1 121145Z 17006KT M04/M11 A3024 RMK A01 T10441113  RH  059%=      5-min Rain = 0
KNH1 121146Z 17005KT M04/M11 A3024 RMK A01 T10441113  RH  059%=      5-min Rain = 0
KNH1 121147Z 17005KT M04/M11 A3024 RMK A01 T10441113  RH  058%=      5-min Rain = 0
KNH1 121148Z 18005KT M04/M11 A3024 RMK A01 T10441114  RH  058%=      5-min Rain = 0
KNH1 121149Z 17005KT M04/M11 A3024 RMK A01 T10441114  RH  058%=      5-min Rain = 0
KNH1 121150Z 18005KT M05/M11 A3024 RMK A01 T10451114  RH  058%=      5-min Rain = 0
KNH1 121151Z 18005KT M05/M12 A3024 RMK A01 T10461115  RH  058%=      5-min Rain = 0
KNH1 121152Z 18005KT M05/M12 A3024 RMK A01 T10461116  RH  058%=      5-min Rain = 0
KNH1 121153Z 18005KT M05/M12 A3024 RMK A01 T10471118  RH  058%=      5-min Rain = 0
KNH1 121154Z 18005KT M05/M12 A3024 RMK A01 T10491119  RH  058%=      5-min Rain = 0
KNH1 121155Z 18005KT M05/M12 A3024 RMK A01 T10491119  RH  058%=      5-min Rain = 0
KNH1 121156Z 18006KT M05/M12 A3024 RMK A01 T10501118  RH  059%=      5-min Rain = 0
KNH1 121157Z 18006KT M05/M12 A3024 RMK A01 T10501117  RH  059%=      5-min Rain = 0
KNH1 121158Z 19006KT M05/M12 A3024 RMK A01 T10501117  RH  059%=      5-min Rain = 0
KNH1 121159Z 19006KT M05/M12 A3024 RMK A01 T10501119  RH  058%=      5-min Rain = 0
KNH1 121200Z 19006KT M05/M12 A3024 RMK A01 T10521122  RH  058%=      5-min Rain = 0
KNH1 121201Z 19006KT M05/M12 A3024 RMK A01 T10541122  RH  059%=      5-min Rain = 0
KNH1 121202Z 19007KT M05/M12 A3024 RMK A01 T10541121  RH  059%=      5-min Rain = 0
KNH1 121203Z 19007KT M05/M12 A3024 RMK A01 T10541120  RH  060%=      5-min Rain = 0
KNH1 121204Z 19007KT M05/M12 A3024 RMK A01 T10541120  RH  060%=      5-min Rain = 0
KNH1 121205Z 19007KT M05/M12 A3024 RMK A01 T10541119  RH  060%=      5-min Rain = 0
KNH1 121206Z 19007KT M05/M12 A3024 RMK A01 T10531119  RH  060%=      5-min Rain = 0
KNH1 121207Z 18007KT M05/M12 A3024 RMK A01 T10531118  RH  060%=      5-min Rain = 0
KNH1 121208Z 19006KT M05/M12 A3024 RMK A01 T10521118  RH  060%=      5-min Rain = 0
KNH1 121209Z 19006KT M05/M12 A3024 RMK A01 T10521119  RH  060%=      5-min Rain = 0
KNH1 121210Z 19006KT M05/M12 A3024 RMK A01 T10531119  RH  060%=      5-min Rain = 0
KNH1 121211Z 19006KT M05/M12 A3024 RMK A01 T10531119  RH  060%=      5-min Rain = 0
KNH1 121212Z 19006KT M05/M12 A3024 RMK A01 T10531119  RH  060%=      5-min Rain = 0
KNH1 121213Z 19006KT M05/M12 A3024 RMK A01 T10541120  RH  060%=      5-min Rain = 0
KNH1 121214Z 19006KT M05/M12 A3024 RMK A01 T10541120  RH  060%=      5-min Rain = 0
KNH1 121215Z 19006KT M06/M12 A3024 RMK A01 T10551120  RH  060%=      5-min Rain = 0
KNH1 121216Z 19006KT M06/M12 A3024 RMK A01 T10561120  RH  060%=      5-min Rain = 0
KNH1 121217Z 19006KT M06/M12 A3024 RMK A01 T10561121  RH  060%=      5-min Rain = 0
KNH1 121218Z 19006KT M06/M12 A3024 RMK A01 T10571121  RH  060%=      5-min Rain = 0
KNH1 121219Z 19006KT M06/M12 A3024 RMK A01 T10581122  RH  061%=      5-min Rain = 0
KNH1 121220Z 19006KT M06/M12 A3024 RMK A01 T10581122  RH  061%=      5-min Rain = 0
KNH1 121221Z 19006KT M06/M12 A3024 RMK A01 T10591122  RH  061%=      5-min Rain = 0
KNH1 121222Z 19006KT M06/M12 A3024 RMK A01 T10591122  RH  061%=      5-min Rain = 0
KNH1 121223Z 18006KT M06/M12 A3024 RMK A01 T10591122  RH  061%=      5-min Rain = 0
KNH1 121224Z 18007KT M06/M12 A3024 RMK A01 T10591121  RH  062%=      5-min Rain = 0
KNH1 121225Z 18007KT M06/M12 A3024 RMK A01 T10591121  RH  062%=      5-min Rain = 0
KNH1 121226Z 18007KT M06/M12 A3024 RMK A01 T10591121  RH  062%=      5-min Rain = 0
KNH1 121227Z 18006KT M06/M12 A3024 RMK A01 T10581120  RH  062%=      5-min Rain = 0
KNH1 121228Z 18006KT M06/M12 A3024 RMK A01 T10571118  RH  062%=      5-min Rain = 0
KNH1 121229Z 18006KT M06/M12 A3024 RMK A01 T10551116  RH  062%=      5-min Rain = 0
KNH1 121230Z 18006KT M05/M12 A3024 RMK A01 T10541116  RH  062%=      5-min Rain = 0
KNH1 121231Z 18006KT M05/M12 A3024 RMK A01 T10541117  RH  061%=      5-min Rain = 0
KNH1 121232Z 18005KT M05/M12 A3024 RMK A01 T10531117  RH  061%=      5-min Rain = 0
KNH1 121233Z 18005KT M05/M12 A3024 RMK A01 T10521115  RH  061%=      5-min Rain = 0
KNH1 121234Z 18005KT M05/M12 A3024 RMK A01 T10511115  RH  061%=      5-min Rain = 0
KNH1 121235Z 18005KT M05/M11 A3024 RMK A01 T10501114  RH  061%=      5-min Rain = 0
KNH1 121236Z 18006KT M05/M11 A3024 RMK A01 T10491114  RH  060%=      5-min Rain = 0
KNH1 121237Z 19006KT M05/M11 A3024 RMK A01 T10481114  RH  060%=      5-min Rain = 0
KNH1 121238Z 18006KT M05/M12 A3024 RMK A01 T10491117  RH  059%=      5-min Rain = 0
KNH1 121239Z 19006KT M05/M12 A3024 RMK A01 T10501119  RH  059%=      5-min Rain = 0
KNH1 121240Z 18006KT M05/M12 A3024 RMK A01 T10521119  RH  059%=      5-min Rain = 0
KNH1 121241Z 18007KT M05/M12 A3024 RMK A01 T10521118  RH  060%=      5-min Rain = 0
KNH1 121242Z 18007KT M05/M12 A3024 RMK A01 T10521118  RH  060%=      5-min Rain = 0
KNH1 121243Z 18006KT M05/M12 A3024 RMK A01 T10521118  RH  060%=      5-min Rain = 0
KNH1 121244Z 18006KT M05/M12 A3024 RMK A01 T10521118  RH  060%=      5-min Rain = 0
KNH1 121245Z 18006KT M05/M12 A3024 RMK A01 T10521117  RH  060%=      5-min Rain = 0
KNH1 121246Z 18006KT M05/M12 A3024 RMK A01 T10521117  RH  060%=      5-min Rain = 0
KNH1 121247Z 18006KT M05/M12 A3024 RMK A01 T10521117  RH  060%=      5-min Rain = 0
KNH1 121248Z 18006KT M05/M12 A3024 RMK A01 T10511116  RH  060%=      5-min Rain = 0
KNH1 121249Z 18006KT M05/M12 A3025 RMK A01 T10501116  RH  060%=      5-min Rain = 0
KNH1 121250Z 18006KT M05/M12 A3025 RMK A01 T10511117  RH  060%=      5-min Rain = 0
KNH1 121251Z 18006KT M05/M12 A3025 RMK A01 T10501117  RH  060%=      5-min Rain = 0
KNH1 121252Z 18006KT M05/M12 A3025 RMK A01 T10501117  RH  060%=      5-min Rain = 0
KNH1 121253Z 18006KT M05/M12 A3025 RMK A01 T10501117  RH  059%=      5-min Rain = 0
KNH1 121254Z 18006KT M05/M12 A3025 RMK A01 T10511117  RH  059%=      5-min Rain = 0
KNH1 121255Z 18007KT M05/M12 A3025 RMK A01 T10511118  RH  060%=      5-min Rain = 0
KNH1 121256Z 18007KT M05/M12 A3025 RMK A01 T10511117  RH  060%=      5-min Rain = 0
KNH1 121257Z 18007KT M05/M12 A3025 RMK A01 T10511117  RH  060%=      5-min Rain = 0
KNH1 121258Z 18007KT M05/M12 A3025 RMK A01 T10511117  RH  060%=      5-min Rain = 0
KNH1 121259Z 18008KT M05/M12 A3025 RMK A01 T10511117  RH  060%=      5-min Rain = 0
KNH1 121300Z 18008KT M05/M12 A3025 RMK A01 T10511117  RH  060%=      5-min Rain = 0
KNH1 121301Z 18008KT M05/M12 A3025 RMK A01 T10521118  RH  060%=      5-min Rain = 0
KNH1 121302Z 18008KT M05/M12 A3025 RMK A01 T10521118  RH  060%=      5-min Rain = 0
KNH1 121303Z 18008KT M05/M12 A3025 RMK A01 T10531118  RH  060%=      5-min Rain = 0
KNH1 121304Z 18008KT M05/M12 A3025 RMK A01 T10531118  RH  060%=      5-min Rain = 0
KNH1 121305Z 18008KT M05/M12 A3025 RMK A01 T10521117  RH  061%=      5-min Rain = 0
KNH1 121306Z 18007KT M05/M12 A3025 RMK A01 T10521116  RH  061%=      5-min Rain = 0
KNH1 121307Z 18007KT M05/M12 A3025 RMK A01 T10511116  RH  061%=      5-min Rain = 0
KNH1 121308Z 18007KT M05/M12 A3025 RMK A01 T10501115  RH  061%=      5-min Rain = 0
KNH1 121309Z 18007KT M05/M11 A3025 RMK A01 T10501114  RH  060%=      5-min Rain = 0
KNH1 121310Z 18007KT M05/M12 A3025 RMK A01 T10501115  RH  060%=      5-min Rain = 0
KNH1 121311Z 18007KT M05/M12 A3025 RMK A01 T10491115  RH  060%=      5-min Rain = 0
KNH1 121312Z 18007KT M05/M11 A3025 RMK A01 T10491114  RH  060%=      5-min Rain = 0
KNH1 121313Z 18007KT M05/M11 A3025 RMK A01 T10491114  RH  060%=      5-min Rain = 0
KNH1 121314Z 18007KT M05/M11 A3025 RMK A01 T10491114  RH  060%=      5-min Rain = 0
KNH1 121315Z 18007KT M05/M11 A3025 RMK A01 T10491114  RH  060%=      5-min Rain = 0
KNH1 121316Z 18007KT M05/M11 A3025 RMK A01 T10491114  RH  060%=      5-min Rain = 0
KNH1 121317Z 18007KT M05/M11 A3025 RMK A01 T10481114  RH  060%=      5-min Rain = 0
KNH1 121318Z 18007KT M05/M11 A3025 RMK A01 T10491114  RH  060%=      5-min Rain = 0
KNH1 121319Z 18007KT M05/M11 A3025 RMK A01 T10491114  RH  060%=      5-min Rain = 0
KNH1 121320Z 18007KT M05/M11 A3025 RMK A01 T10491114  RH  061%=      5-min Rain = 0
KNH1 121321Z 18007KT M05/M11 A3025 RMK A01 T10491114  RH  061%=      5-min Rain = 0
KNH1 121322Z 18007KT M05/M11 A3025 RMK A01 T10491113  RH  061%=      5-min Rain = 0
KNH1 121323Z 18007KT M05/M11 A3025 RMK A01 T10481112  RH  061%=      5-min Rain = 0
KNH1 121324Z 18007KT M05/M11 A3026 RMK A01 T10481113  RH  061%=      5-min Rain = 0
KNH1 121325Z 19007KT M05/M11 A3025 RMK A01 T10491114  RH  060%=      5-min Rain = 0
KNH1 121326Z 19008KT M05/M11 A3025 RMK A01 T10491113  RH  060%=      5-min Rain = 0
KNH1 121327Z 19007KT M05/M11 A3026 RMK A01 T10491114  RH  060%=      5-min Rain = 0
KNH1 121328Z 19007KT M05/M12 A3026 RMK A01 T10501115  RH  060%=      5-min Rain = 0
KNH1 121329Z 19007KT M05/M12 A3026 RMK A01 T10511115  RH  060%=      5-min Rain = 0
KNH1 121330Z 19007KT M05/M12 A3026 RMK A01 T10511115  RH  061%=      5-min Rain = 0
KNH1 121331Z 19006KT M05/M12 A3026 RMK A01 T10511115  RH  061%=      5-min Rain = 0
KNH1 121332Z 19006KT M05/M12 A3026 RMK A01 T10511115  RH  061%=      5-min Rain = 0
KNH1 121333Z 19006KT M05/M12 A3026 RMK A01 T10521115  RH  061%=      5-min Rain = 0
KNH1 121334Z 19007KT M05/M12 A3026 RMK A01 T10521116  RH  061%=      5-min Rain = 0
KNH1 121335Z 18006KT M05/M12 A3026 RMK A01 T10531115  RH  061%=      5-min Rain = 0
KNH1 121336Z 18007KT M05/M11 A3026 RMK A01 T10531114  RH  062%=      5-min Rain = 0
KNH1 121337Z 19006KT M05/M11 A3026 RMK A01 T10521113  RH  062%=      5-min Rain = 0
KNH1 121338Z 19006KT M05/M11 A3026 RMK A01 T10521113  RH  062%=      5-min Rain = 0
KNH1 121339Z 19006KT M05/M11 A3026 RMK A01 T10521114  RH  062%=      5-min Rain = 0
KNH1 121340Z 19006KT M05/M11 A3026 RMK A01 T10521114  RH  062%=      5-min Rain = 0
KNH1 121341Z 18006KT M05/M12 A3026 RMK A01 T10531115  RH  062%=      5-min Rain = 0
KNH1 121342Z 18006KT M05/M11 A3026 RMK A01 T10531114  RH  062%=      5-min Rain = 0
KNH1 121343Z 17005KT M05/M11 A3026 RMK A01 T10531114  RH  062%=      5-min Rain = 0
KNH1 121344Z 18005KT M05/M11 A3026 RMK A01 T10531113  RH  062%=      5-min Rain = 0
KNH1 121345Z 17006KT M05/M11 A3026 RMK A01 T10521113  RH  062%=      5-min Rain = 0
KNH1 121346Z 18006KT M05/M11 A3026 RMK A01 T10521113  RH  062%=      5-min Rain = 0
KNH1 121347Z 18006KT M05/M11 A3026 RMK A01 T10521113  RH  062%=      5-min Rain = 0
KNH1 121348Z 18006KT M05/M11 A3026 RMK A01 T10521112  RH  063%=      5-min Rain = 0
KNH1 121349Z 18006KT M05/M11 A3026 RMK A01 T10521112  RH  062%=      5-min Rain = 0
KNH1 121350Z 19006KT M05/M11 A3026 RMK A01 T10521113  RH  062%=      5-min Rain = 0
KNH1 121351Z 19006KT M05/M11 A3026 RMK A01 T10511114  RH  062%=      5-min Rain = 0
KNH1 121352Z 19005KT M05/M12 A3026 RMK A01 T10531115  RH  062%=      5-min Rain = 0
KNH1 121353Z 19005KT M05/M12 A3026 RMK A01 T10531115  RH  062%=      5-min Rain = 0
KNH1 121354Z 18005KT M05/M12 A3026 RMK A01 T10541115  RH  062%=      5-min Rain = 0
KNH1 121355Z 19005KT M05/M12 A3026 RMK A01 T10541115  RH  062%=      5-min Rain = 0
KNH1 121356Z 18005KT M05/M12 A3026 RMK A01 T10541115  RH  062%=      5-min Rain = 0
KNH1 121357Z 19005KT M05/M11 A3026 RMK A01 T10541114  RH  063%=      5-min Rain = 0
KNH1 121358Z 19006KT M05/M11 A3026 RMK A01 T10541114  RH  062%=      5-min Rain = 0
KNH1 121359Z 20005KT M05/M12 A3026 RMK A01 T10541115  RH  062%=      5-min Rain = 0
KNH1 121400Z 20005KT M05/M12 A3026 RMK A01 T10541115  RH  062%=      5-min Rain = 0
KNH1 121401Z 20005KT M06/M12 A3026 RMK A01 T10551115  RH  063%=      5-min Rain = 0
KNH1 121402Z 20005KT M06/M12 A3026 RMK A01 T10551116  RH  063%=      5-min Rain = 0
KNH1 121403Z 20005KT M06/M12 A3026 RMK A01 T10561116  RH  063%=      5-min Rain = 0
KNH1 121404Z 20004KT M06/M12 A3026 RMK A01 T10571116  RH  063%=      5-min Rain = 0
KNH1 121405Z 21005KT M06/M12 A3026 RMK A01 T10571116  RH  063%=      5-min Rain = 0
KNH1 121406Z 21005KT M06/M12 A3026 RMK A01 T10571116  RH  063%=      5-min Rain = 0
KNH1 121407Z 20004KT M06/M12 A3026 RMK A01 T10571116  RH  063%=      5-min Rain = 0
KNH1 121408Z 19004KT M06/M12 A3026 RMK A01 T10571116  RH  063%=      5-min Rain = 0
KNH1 121409Z 18004KT M06/M12 A3026 RMK A01 T10571115  RH  063%=      5-min Rain = 0
KNH1 121410Z 18004KT M06/M12 A3026 RMK A01 T10571115  RH  064%=      5-min Rain = 0
KNH1 121411Z 18004KT M06/M11 A3026 RMK A01 T10561114  RH  064%=      5-min Rain = 0
KNH1 121412Z 18004KT M06/M11 A3026 RMK A01 T10551113  RH  064%=      5-min Rain = 0
KNH1 121413Z 18003KT M06/M11 A3026 RMK A01 T10551114  RH  063%=      5-min Rain = 0
KNH1 121414Z 17004KT M06/M11 A3026 RMK A01 T10551114  RH  063%=      5-min Rain = 0
KNH1 121415Z 17003KT M06/M11 A3026 RMK A01 T10551114  RH  063%=      5-min Rain = 0
KNH1 121416Z 16004KT M06/M12 A3026 RMK A01 T10551115  RH  063%=      5-min Rain = 0
KNH1 121417Z 16005KT M06/M11 A3026 RMK A01 T10551114  RH  063%=      5-min Rain = 0
KNH1 121418Z 17005KT M05/M11 A3026 RMK A01 T10541113  RH  063%=      5-min Rain = 0
KNH1 121419Z 18004KT M05/M11 A3026 RMK A01 T10531112  RH  063%=      5-min Rain = 0
KNH1 121420Z 17005KT M05/M11 A3026 RMK A01 T10521112  RH  063%=      5-min Rain = 0
KNH1 121421Z 16005KT M05/M11 A3025 RMK A01 T10521112  RH  062%=      5-min Rain = 0
KNH1 121422Z 16006KT M05/M11 A3025 RMK A01 T10511112  RH  062%=      5-min Rain = 0
KNH1 121423Z 17007KT M05/M11 A3025 RMK A01 T10511112  RH  062%=      5-min Rain = 0
KNH1 121424Z 18006KT M05/M11 A3025 RMK A01 T10491110  RH  062%=      5-min Rain = 0
KNH1 121425Z 18007KT M05/M11 A3025 RMK A01 T10491110  RH  062%=      5-min Rain = 0
KNH1 121426Z 18007KT M05/M11 A3025 RMK A01 T10481111  RH  062%=      5-min Rain = 0
KNH1 121427Z 18007KT M05/M11 A3025 RMK A01 T10481111  RH  061%=      5-min Rain = 0
KNH1 121428Z 19007KT M05/M11 A3025 RMK A01 T10481111  RH  061%=      5-min Rain = 0
KNH1 121429Z 19007KT M05/M11 A3025 RMK A01 T10481111  RH  061%=      5-min Rain = 0
KNH1 121430Z 19007KT M05/M11 A3025 RMK A01 T10481111  RH  061%=      5-min Rain = 0
KNH1 121431Z 19007KT M05/M11 A3025 RMK A01 T10471111  RH  061%=      5-min Rain = 0
KNH1 121432Z 18006KT M05/M11 A3025 RMK A01 T10471111  RH  061%=      5-min Rain = 0
KNH1 121433Z 18005KT M05/M11 A3025 RMK A01 T10461110  RH  061%=      5-min Rain = 0
KNH1 121434Z 17005KT M05/M11 A3025 RMK A01 T10461110  RH  061%=      5-min Rain = 0
KNH1 121435Z 17005KT M05/M11 A3025 RMK A01 T10451109  RH  061%=      5-min Rain = 0
KNH1 121436Z 17005KT M04/M11 A3025 RMK A01 T10441109  RH  061%=      5-min Rain = 0
KNH1 121437Z 17005KT M04/M11 A3025 RMK A01 T10431108  RH  060%=      5-min Rain = 0
KNH1 121438Z 18006KT M04/M11 A3025 RMK A01 T10431108  RH  060%=      5-min Rain = 0
KNH1 121439Z 17005KT M04/M11 A3025 RMK A01 T10421107  RH  060%=      5-min Rain = 0
KNH1 121440Z 18005KT M04/M11 A3025 RMK A01 T10411108  RH  060%=      5-min Rain = 0
KNH1 121441Z 18005KT M04/M11 A3025 RMK A01 T10401108  RH  060%=      5-min Rain = 0
KNH1 121442Z 19006KT M04/M11 A3025 RMK A01 T10401107  RH  059%=      5-min Rain = 0
KNH1 121443Z 19006KT M04/M11 A3025 RMK A01 T10391107  RH  059%=      5-min Rain = 0
KNH1 121444Z 19006KT M04/M11 A3025 RMK A01 T10391107  RH  059%=      5-min Rain = 0
KNH1 121445Z 18006KT M04/M11 A3025 RMK A01 T10371106  RH  059%=      5-min Rain = 0
KNH1 121446Z 19007KT M04/M11 A3025 RMK A01 T10371106  RH  059%=      5-min Rain = 0
KNH1 121447Z 19007KT M04/M11 A3025 RMK A01 T10371106  RH  059%=      5-min Rain = 0
KNH1 121448Z 19007KT M04/M11 A3025 RMK A01 T10361106  RH  058%=      5-min Rain = 0
KNH1 121449Z 18007KT M04/M11 A3025 RMK A01 T10361106  RH  058%=      5-min Rain = 0
KNH1 121450Z 18007KT M04/M11 A3025 RMK A01 T10351105  RH  058%=      5-min Rain = 0
KNH1 121451Z 18006KT M04/M11 A3025 RMK A01 T10351105  RH  058%=      5-min Rain = 0
KNH1 121452Z 19006KT M03/M11 A3025 RMK A01 T10341105  RH  058%=      5-min Rain = 0
KNH1 121453Z 19006KT M03/M10 A3025 RMK A01 T10331103  RH  058%=      5-min Rain = 0
KNH1 121454Z 19008KT M03/M10 A3025 RMK A01 T10311102  RH  058%=      5-min Rain = 0
KNH1 121455Z 19006KT M03/M10 A3025 RMK A01 T10301102  RH  058%=      5-min Rain = 0
KNH1 121456Z 19008KT M03/M10 A3025 RMK A01 T10301102  RH  058%=      5-min Rain = 0
KNH1 121457Z 18008KT M03/M10 A3025 RMK A01 T10291102  RH  057%=      5-min Rain = 0
KNH1 121458Z 18009KT M03/M10 A3025 RMK A01 T10291102  RH  057%=      5-min Rain = 0
KNH1 121459Z 18007KT M03/M10 A3025 RMK A01 T10291102  RH  057%=      5-min Rain = 0
KNH1 121500Z 18007KT M03/M10 A3026 RMK A01 T10281101  RH  057%=      5-min Rain = 0
KNH1 121501Z 18006KT M03/M10 A3026 RMK A01 T10281101  RH  057%=      5-min Rain = 0
KNH1 121502Z 18006KT M03/M10 A3026 RMK A01 T10271101  RH  057%=      5-min Rain = 0
KNH1 121503Z 17006KT M03/M10 A3026 RMK A01 T10251100  RH  057%=      5-min Rain = 0
KNH1 121504Z 18007KT M03/M10 A3026 RMK A01 T10251100  RH  056%=      5-min Rain = 0
KNH1 121505Z 17005KT M02/M10 A3026 RMK A01 T10241100  RH  056%=      5-min Rain = 0
KNH1 121506Z 17006KT M02/M10 A3026 RMK A01 T10241100  RH  056%=      5-min Rain = 0
KNH1 121507Z 18005KT M02/M10 A3026 RMK A01 T10231100  RH  056%=      5-min Rain = 0
KNH1 121508Z 17006KT M02/M10 A3026 RMK A01 T10231100  RH  056%=      5-min Rain = 0
KNH1 121509Z 17006KT M02/M10 A3026 RMK A01 T10221100  RH  055%=      5-min Rain = 0
KNH1 121510Z 18008KT M02/M10 A3026 RMK A01 T10211099  RH  055%=      5-min Rain = 0
KNH1 121511Z 18009KT M02/M10 A3026 RMK A01 T10211099  RH  055%=      5-min Rain = 0
KNH1 121512Z 18008KT M02/M10 A3026 RMK A01 T10211099  RH  055%=      5-min Rain = 0
KNH1 121513Z 18008KT M02/M10 A3026 RMK A01 T10201099  RH  055%=      5-min Rain = 0
KNH1 121514Z 18008KT M02/M10 A3026 RMK A01 T10191099  RH  055%=      5-min Rain = 0
KNH1 121515Z 17007KT M02/M10 A3026 RMK A01 T10191099  RH  054%=      5-min Rain = 0
KNH1 121516Z 17009KT M02/M10 A3026 RMK A01 T10181099  RH  054%=      5-min Rain = 0
KNH1 121517Z 17007KT M02/M10 A3026 RMK A01 T10181099  RH  054%=      5-min Rain = 0
KNH1 121518Z 17007KT M02/M10 A3026 RMK A01 T10171098  RH  054%=      5-min Rain = 0
KNH1 121519Z 18009KT M02/M10 A3026 RMK A01 T10171098  RH  054%=      5-min Rain = 0
KNH1 121520Z 18008KT M02/M10 A3026 RMK A01 T10161098  RH  054%=      5-min Rain = 0
KNH1 121521Z 17009KT M02/M10 A3026 RMK A01 T10161098  RH  054%=      5-min Rain = 0
KNH1 121522Z 18007KT M02/M10 A3026 RMK A01 T10171098  RH  054%=      5-min Rain = 0
KNH1 121523Z 17008KT M02/M10 A3026 RMK A01 T10161098  RH  054%=      5-min Rain = 0
KNH1 121524Z 18008KT M02/M10 A3026 RMK A01 T10151097  RH  054%=      5-min Rain = 0
KNH1 121525Z 18006KT M02/M10 A3026 RMK A01 T10151097  RH  053%=      5-min Rain = 0
KNH1 121526Z 17005KT M01/M10 A3026 RMK A01 T10141097  RH  053%=      5-min Rain = 0
KNH1 121527Z 17006KT M01/M10 A3026 RMK A01 T10131097  RH  053%=      5-min Rain = 0
KNH1 121528Z 17005KT M01/M10 A3026 RMK A01 T10121096  RH  053%=      5-min Rain = 0
KNH1 121529Z 16005KT M01/M09 A3026 RMK A01 T10101094  RH  053%=      5-min Rain = 0
KNH1 121530Z 17006KT M01/M09 A3026 RMK A01 T10091094  RH  052%=      5-min Rain = 0
KNH1 121531Z 17007KT M01/M10 A3026 RMK A01 T10091095  RH  052%=      5-min Rain = 0
KNH1 121532Z 18006KT M01/M10 A3026 RMK A01 T10091095  RH  052%=      5-min Rain = 0
KNH1 121533Z 17006KT M01/M10 A3026 RMK A01 T10091095  RH  052%=      5-min Rain = 0
KNH1 121534Z 17007KT M01/M09 A3026 RMK A01 T10081094  RH  052%=      5-min Rain = 0
KNH1 121535Z 17007KT M01/M09 A3026 RMK A01 T10071094  RH  051%=      5-min Rain = 0
KNH1 121536Z 18008KT M01/M10 A3026 RMK A01 T10071095  RH  051%=      5-min Rain = 0
KNH1 121537Z 18008KT M01/M10 A3026 RMK A01 T10071096  RH  051%=      5-min Rain = 0
KNH1 121538Z 18009KT M01/M10 A3027 RMK A01 T10061095  RH  051%=      5-min Rain = 0
KNH1 121539Z 18009KT M01/M09 A3027 RMK A01 T10051094  RH  051%=      5-min Rain = 0
KNH1 121540Z 18007KT M00/M09 A3027 RMK A01 T10041094  RH  051%=      5-min Rain = 0
KNH1 121541Z 18008KT M00/M09 A3027 RMK A01 T10031094  RH  051%=      5-min Rain = 0
KNH1 121542Z 18008KT M00/M09 A3027 RMK A01 T10031094  RH  050%=      5-min Rain = 0
KNH1 121543Z 18010KT M00/M10 A3027 RMK A01 T10021095  RH  050%=      5-min Rain = 0
KNH1 121544Z 18009KT M00/M10 A3027 RMK A01 T10011095  RH  049%=      5-min Rain = 0
KNH1 121545Z 18010KT M00/M10 A3027 RMK A01 T10011095  RH  049%=      5-min Rain = 0
KNH1 121546Z 18009KT M00/M10 A3027 RMK A01 T10011095  RH  049%=      5-min Rain = 0
KNH1 121547Z 19008KT M00/M10 A3027 RMK A01 T10011096  RH  049%=      5-min Rain = 0
KNH1 121548Z 18010KT 00/10 A3027 RMK A01 T00-00-95  RH  049%=      5-min Rain = 0
KNH1 121549Z 17007KT 00/M10 A3027 RMK A01 T00011095  RH  048%=      5-min Rain = 0
KNH1 121550Z 18007KT 00/M10 A3027 RMK A01 T00021095  RH  048%=      5-min Rain = 0
KNH1 121551Z 18008KT 00/M10 A3027 RMK A01 T00031095  RH  048%=      5-min Rain = 0
KNH1 121552Z 18009KT 00/M10 A3027 RMK A01 T00021096  RH  048%=      5-min Rain = 0
KNH1 121553Z 18008KT 00/M10 A3027 RMK A01 T00021096  RH  048%=      5-min Rain = 0
KNH1 121554Z 18007KT 00/M10 A3027 RMK A01 T00021096  RH  048%=      5-min Rain = 0
KNH1 121555Z 19008KT 00/M10 A3027 RMK A01 T00031095  RH  048%=      5-min Rain = 0
KNH1 121556Z 19009KT 01/M09 A3027 RMK A01 T00051093  RH  048%=      5-min Rain = 0
KNH1 121557Z 19008KT 01/M09 A3027 RMK A01 T00061094  RH  047%=      5-min Rain = 0
KNH1 121558Z 18007KT 01/M09 A3027 RMK A01 T00061094  RH  047%=      5-min Rain = 0
KNH1 121559Z 18006KT 01/M09 A3027 RMK A01 T00071094  RH  047%=      5-min Rain = 0
KNH1 121600Z 18007KT 01/M09 A3027 RMK A01 T00091092  RH  047%=      5-min Rain = 0
KNH1 121601Z 18006KT 01/M09 A3027 RMK A01 T00121091  RH  046%=      5-min Rain = 0
KNH1 121602Z 18007KT 01/M09 A3027 RMK A01 T00121092  RH  046%=      5-min Rain = 0
KNH1 121603Z 19007KT 01/M09 A3027 RMK A01 T00121093  RH  045%=      5-min Rain = 0
KNH1 121604Z 18008KT 01/M09 A3027 RMK A01 T00121093  RH  045%=      5-min Rain = 0
KNH1 121605Z 18007KT 01/M09 A3027 RMK A01 T00131094  RH  045%=      5-min Rain = 0
KNH1 121606Z 17006KT 01/M09 A3027 RMK A01 T00141092  RH  045%=      5-min Rain = 0
KNH1 121607Z 17007KT 02/M09 A3027 RMK A01 T00161093  RH  044%=      5-min Rain = 0
KNH1 121608Z 16007KT 02/M09 A3027 RMK A01 T00151094  RH  044%=      5-min Rain = 0
KNH1 121609Z 17006KT 02/M10 A3027 RMK A01 T00151095  RH  044%=      5-min Rain = 0
KNH1 121610Z 18006KT 02/M09 A3027 RMK A01 T00161094  RH  044%=      5-min Rain = 0
KNH1 121611Z 15008KT 02/M09 A3027 RMK A01 T00171094  RH  043%=      5-min Rain = 0
KNH1 121612Z 15006KT 02/M10 A3027 RMK A01 T00181096  RH  043%=      5-min Rain = 0
KNH1 121613Z 16006KT 02/M10 A3027 RMK A01 T00181096  RH  043%=      5-min Rain = 0
KNH1 121614Z 17008KT 02/M10 A3027 RMK A01 T00191095  RH  043%=      5-min Rain = 0
KNH1 121615Z 17009KT 02/M10 A3027 RMK A01 T00191095  RH  042%=      5-min Rain = 0
KNH1 121616Z 17008KT 02/M10 A3027 RMK A01 T00181097  RH  042%=      5-min Rain = 0
KNH1 121617Z 18006KT 02/M10 A3027 RMK A01 T00181096  RH  043%=      5-min Rain = 0
KNH1 121618Z 18008KT 02/M10 A3027 RMK A01 T00181095  RH  043%=      5-min Rain = 0
KNH1 121619Z 18008KT 02/M10 A3027 RMK A01 T00191095  RH  042%=      5-min Rain = 0
KNH1 121620Z 18008KT 02/M09 A3027 RMK A01 T00201094  RH  042%=      5-min Rain = 0
KNH1 121621Z 17007KT 02/M09 A3027 RMK A01 T00221094  RH  042%=      5-min Rain = 0
KNH1 121622Z 17008KT 02/M10 A3027 RMK A01 T00221095  RH  042%=      5-min Rain = 0
KNH1 121623Z 18009KT 02/M09 A3027 RMK A01 T00221094  RH  042%=      5-min Rain = 0
KNH1 121624Z 19009KT 02/M09 A3027 RMK A01 T00231094  RH  042%=      5-min Rain = 0
KNH1 121625Z 19010KT 02/M09 A3027 RMK A01 T00241093  RH  042%=      5-min Rain = 0
KNH1 121626Z 19009KT 03/M09 A3027 RMK A01 T00251093  RH  041%=      5-min Rain = 0
KNH1 121627Z 19008KT 03/M09 A3027 RMK A01 T00251093  RH  041%=      5-min Rain = 0
KNH1 121628Z 19009KT 03/M09 A3027 RMK A01 T00261093  RH  041%=      5-min Rain = 0
KNH1 121629Z 19008KT 03/M09 A3027 RMK A01 T00251094  RH  041%=      5-min Rain = 0
KNH1 121630Z 18008KT 03/M09 A3027 RMK A01 T00261092  RH  041%=      5-min Rain = 0
KNH1 121631Z 17007KT 03/M09 A3027 RMK A01 T00271093  RH  041%=      5-min Rain = 0
KNH1 121632Z 17010KT 03/M09 A3027 RMK A01 T00281094  RH  040%=      5-min Rain = 0
KNH1 121633Z 17009KT 03/M10 A3027 RMK A01 T00271096  RH  040%=      5-min Rain = 0
KNH1 121634Z 17007KT 03/M10 A3027 RMK A01 T00261096  RH  040%=      5-min Rain = 0
KNH1 121635Z 17008KT 03/M10 A3027 RMK A01 T00261096  RH  040%=      5-min Rain = 0
KNH1 121636Z 17007KT 03/M10 A3027 RMK A01 T00271097  RH  040%=      5-min Rain = 0
KNH1 121637Z 17009KT 03/M10 A3027 RMK A01 T00271097  RH  039%=      5-min Rain = 0
KNH1 121638Z 17007KT 03/M10 A3027 RMK A01 T00271096  RH  040%=      5-min Rain = 0
KNH1 121639Z 19009KT 03/M09 A3027 RMK A01 T00291094  RH  040%=      5-min Rain = 0
KNH1 121640Z 18009KT 03/M10 A3027 RMK A01 T00301095  RH  039%=      5-min Rain = 0
KNH1 121641Z 18009KT 03/M10 A3027 RMK A01 T00311095  RH  039%=      5-min Rain = 0
KNH1 121642Z 17007KT 03/M10 A3026 RMK A01 T00311096  RH  039%=      5-min Rain = 0
KNH1 121643Z 17008KT 03/M10 A3026 RMK A01 T00311096  RH  039%=      5-min Rain = 0
KNH1 121644Z 17009KT 03/M10 A3026 RMK A01 T00311097  RH  039%=      5-min Rain = 0
KNH1 121645Z 18008KT 03/M10 A3026 RMK A01 T00311097  RH  039%=      5-min Rain = 0
KNH1 121646Z 18007KT 03/M10 A3026 RMK A01 T00311097  RH  039%=      5-min Rain = 0
KNH1 121647Z 16008KT 03/M10 A3026 RMK A01 T00301096  RH  039%=      5-min Rain = 0
KNH1 121648Z 16007KT 03/M10 A3026 RMK A01 T00301096  RH  039%=      5-min Rain = 0
KNH1 121649Z 18009KT 03/M10 A3026 RMK A01 T00301096  RH  039%=      5-min Rain = 0
KNH1 121650Z 18009KT 03/M10 A3026 RMK A01 T00321097  RH  038%=      5-min Rain = 0
KNH1 121651Z 17006KT 03/M10 A3026 RMK A01 T00331095  RH  039%=      5-min Rain = 0
KNH1 121652Z 17007KT 04/M09 A3026 RMK A01 T00361092  RH  039%=      5-min Rain = 0
KNH1 121653Z 18009KT 04/M10 A3026 RMK A01 T00391095  RH  037%=      5-min Rain = 0
KNH1 121654Z 18010KT 04/M10 A3026 RMK A01 T00371099  RH  036%=      5-min Rain = 0
KNH1 121655Z 17009KT 04/M10 A3026 RMK A01 T00351098  RH  037%=      5-min Rain = 0
KNH1 121656Z 16008KT 04/M10 A3026 RMK A01 T00351096  RH  038%=      5-min Rain = 0
KNH1 121657Z 16010KT 04/M10 A3026 RMK A01 T00371097  RH  037%=      5-min Rain = 0
KNH1 121658Z 17008KT 04/M10 A3025 RMK A01 T00361098  RH  037%=      5-min Rain = 0
KNH1 121659Z 17009KT 04/M10 A3025 RMK A01 T00361099  RH  036%=      5-min Rain = 0
KNH1 121700Z 17009KT 04/M10 A3025 RMK A01 T00371099  RH  036%=      5-min Rain = 0
KNH1 121701Z 17008KT 04/M10 A3025 RMK A01 T00391095  RH  037%=      5-min Rain = 0
KNH1 121702Z 16007KT 04/M10 A3025 RMK A01 T00421095  RH  036%=      5-min Rain = 0
KNH1 121703Z 16008KT 04/M10 A3025 RMK A01 T00421095  RH  036%=      5-min Rain = 0
KNH1 121704Z 18009KT 04/M10 A3025 RMK A01 T00411096  RH  036%=      5-min Rain = 0
KNH1 121705Z 19012KT 04/M10 A3025 RMK A01 T00401097  RH  036%=      5-min Rain = 0
KNH1 121706Z 18010KT 04/M10 A3025 RMK A01 T00401097  RH  036%=      5-min Rain = 0
KNH1 121707Z 18007KT 04/M10 A3025 RMK A01 T00421097  RH  036%=      5-min Rain = 0
KNH1 121708Z 18011KT 04/M10 A3025 RMK A01 T00411098  RH  035%=      5-min Rain = 0
KNH1 121709Z 16009KT 04/M10 A3025 RMK A01 T00411097  RH  036%=      5-min Rain = 0
KNH1 121710Z 18010KT 04/M10 A3025 RMK A01 T00401098  RH  036%=      5-min Rain = 0
KNH1 121711Z 19010KT 04/M10 A3025 RMK A01 T00401098  RH  036%=      5-min Rain = 0
KNH1 121712Z 18009KT 04/M10 A3025 RMK A01 T00401098  RH  036%=      5-min Rain = 0
KNH1 121713Z 18009KT 04/M10 A3025 RMK A01 T00401099  RH  036%=      5-min Rain = 0
KNH1 121714Z 17010KT 04/M10 A3025 RMK A01 T00411098  RH  036%=      5-min Rain = 0
KNH1 121715Z 18010KT 04/M10 A3025 RMK A01 T00411099  RH  035%=      5-min Rain = 0
KNH1 121716Z 17010KT 04/M10 A3025 RMK A01 T00411101  RH  035%=      5-min Rain = 0
KNH1 121717Z 18008KT 04/M10 A3024 RMK A01 T00411100  RH  035%=      5-min Rain = 0
KNH1 121718Z 19012KT 04/M10 A3024 RMK A01 T00421101  RH  034%=      5-min Rain = 0
KNH1 121719Z 19013KT 04/M10 A3024 RMK A01 T00431104  RH  033%=      5-min Rain = 0
KNH1 121720Z 19011KT 04/M11 A3025 RMK A01 T00431105  RH  033%=      5-min Rain = 0
KNH1 121721Z 19010KT 04/M10 A3025 RMK A01 T00421104  RH  034%=      5-min Rain = 0
KNH1 121722Z 19012KT 04/M10 A3024 RMK A01 T00431104  RH  033%=      5-min Rain = 0
KNH1 121723Z 19011KT 04/M11 A3024 RMK A01 T00441107  RH  033%=      5-min Rain = 0
KNH1 121724Z 19014KT 04/M11 A3024 RMK A01 T00441107  RH  032%=      5-min Rain = 0
KNH1 121725Z 18012KT 05/M11 A3024 RMK A01 T00451106  RH  033%=      5-min Rain = 0
KNH1 121726Z 18013KT 05/M11 A3024 RMK A01 T00451105  RH  033%=      5-min Rain = 0
KNH1 121727Z 19012KT 05/M11 A3024 RMK A01 T00451109  RH  032%=      5-min Rain = 0
KNH1 121728Z 19012KT 05/M11 A3024 RMK A01 T00451110  RH  032%=      5-min Rain = 0
KNH1 121729Z 18014KT 04/M11 A3024 RMK A01 T00441109  RH  032%=      5-min Rain = 0
KNH1 121730Z 18012KT 04/M11 A3024 RMK A01 T00441110  RH  032%=      5-min Rain = 0
KNH1 121731Z 18010KT 04/M11 A3024 RMK A01 T00441111  RH  031%=      5-min Rain = 0
KNH1 121732Z 17012KT 05/M11 A3024 RMK A01 T00451111  RH  031%=      5-min Rain = 0
KNH1 121733Z 18013KT 05/M11 A3024 RMK A01 T00461111  RH  031%=      5-min Rain = 0
KNH1 121734Z 18013KT 05/M11 A3024 RMK A01 T00471112  RH  030%=      5-min Rain = 0
KNH1 121735Z 17012KT 05/M12 A3024 RMK A01 T00471115  RH  030%=      5-min Rain = 0
KNH1 121736Z 17013KT 05/M12 A3024 RMK A01 T00481115  RH  030%=      5-min Rain = 0
KNH1 121737Z 16011KT 05/M12 A3024 RMK A01 T00471115  RH  030%=      5-min Rain = 0
KNH1 121738Z 17014KT 05/M11 A3023 RMK A01 T00461114  RH  030%=      5-min Rain = 0
KNH1 121739Z 18014KT 05/M11 A3023 RMK A01 T00461113  RH  030%=      5-min Rain = 0
KNH1 121740Z 19013KT 05/M11 A3023 RMK A01 T00471111  RH  031%=      5-min Rain = 0
KNH1 121741Z 19015KT 05/M11 A3023 RMK A01 T00491111  RH  030%=      5-min Rain = 0
KNH1 121742Z 18015KT 05/M11 A3023 RMK A01 T00491113  RH  030%=      5-min Rain = 0
KNH1 121743Z 18014KT 05/M11 A3023 RMK A01 T00491112  RH  030%=      5-min Rain = 0
KNH1 121744Z 19013KT 05/M11 A3023 RMK A01 T00501111  RH  030%=      5-min Rain = 0
KNH1 121745Z 18012KT 05/M11 A3023 RMK A01 T00511110  RH  030%=      5-min Rain = 0
KNH1 121746Z 18013G18KT 05/M11 A3023 RMK A01 T00531108  RH  030%=      5-min Rain = 0
KNH1 121747Z 17013KT 05/M11 A3023 RMK A01 T00531109  RH  030%=      5-min Rain = 0
KNH1 121748Z 18013KT 05/M11 A3023 RMK A01 T00541111  RH  029%=      5-min Rain = 0
KNH1 121749Z 17014G19KT 05/M11 A3022 RMK A01 T00541111  RH  029%=      5-min Rain = 0
KNH1 121750Z 17015KT 05/M11 A3022 RMK A01 T00531113  RH  029%=      5-min Rain = 0
KNH1 121751Z 18013KT 05/M11 A3022 RMK A01 T00531114  RH  029%=      5-min Rain = 0
KNH1 121752Z 18015KT 05/M12 A3022 RMK A01 T00531116  RH  028%=      5-min Rain = 0
KNH1 121753Z 18016KT 05/M12 A3022 RMK A01 T00531118  RH  028%=      5-min Rain = 0
KNH1 121754Z 18014KT 05/M12 A3022 RMK A01 T00541117  RH  028%=      5-min Rain = 0
KNH1 121755Z 18015KT 06/M12 A3022 RMK A01 T00561117  RH  028%=      5-min Rain = 0
KNH1 121756Z 18014KT 06/M12 A3022 RMK A01 T00561117  RH  028%=      5-min Rain = 0
KNH1 121757Z 18017KT 06/M12 A3022 RMK A01 T00571115  RH  028%=      5-min Rain = 0
KNH1 121758Z 18015KT 06/M11 A3022 RMK A01 T00551114  RH  028%=      5-min Rain = 0
KNH1 121759Z 18015KT 05/M11 A3022 RMK A01 T00541114  RH  029%=      5-min Rain = 0
KNH1 121800Z 18013KT 05/M11 A3022 RMK A01 T00541114  RH  029%=      5-min Rain = 0
KNH1 121801Z 18012KT 06/M11 A3022 RMK A01 T00561112  RH  029%=      5-min Rain = 0
KNH1 121802Z 18013KT 06/M11 A3022 RMK A01 T00571113  RH  028%=      5-min Rain = 0
KNH1 121803Z 17014KT 06/M11 A3022 RMK A01 T00561113  RH  028%=      5-min Rain = 0
KNH1 121804Z 18014KT 06/M11 A3022 RMK A01 T00561112  RH  029%=      5-min Rain = 0
KNH1 121805Z 17014KT 06/M11 A3021 RMK A01 T00561111  RH  029%=      5-min Rain = 0
KNH1 121806Z 17013KT 06/M11 A3021 RMK A01 T00551114  RH  028%=      5-min Rain = 0
KNH1 121807Z 18013KT 06/M11 A3021 RMK A01 T00551114  RH  028%=      5-min Rain = 0
KNH1 121808Z 19012KT 06/M11 A3021 RMK A01 T00561111  RH  029%=      5-min Rain = 0
KNH1 121809Z 17014KT 06/M11 A3021 RMK A01 T00561111  RH  029%=      5-min Rain = 0
KNH1 121810Z 18013KT 06/M11 A3021 RMK A01 T00571111  RH  029%=      5-min Rain = 0
KNH1 121811Z 17011KT 06/M11 A3021 RMK A01 T00581111  RH  029%=      5-min Rain = 0
KNH1 121812Z 17011G18KT 06/M11 A3021 RMK A01 T00611110  RH  028%=      5-min Rain = 0
KNH1 121813Z 17014KT 06/M11 A3021 RMK A01 T00641112  RH  027%=      5-min Rain = 0
KNH1 121814Z 18013KT 06/M11 A3021 RMK A01 T00611114  RH  027%=      5-min Rain = 0
KNH1 121815Z 19016KT 06/M12 A3021 RMK A01 T00591115  RH  027%=      5-min Rain = 0
KNH1 121816Z 19015KT 06/M12 A302 RMK A01 T00601117  RH  027%=      5-min Rain = 0
KNH1 121817Z 18014KT 06/M12 A302 RMK A01 T00601116  RH  027%=      5-min Rain = 0
KNH1 121818Z 18011KT 06/M11 A302 RMK A01 T00631113  RH  027%=      5-min Rain = 0
KNH1 121819Z 18015G20KT 06/M11 A302 RMK A01 T00641113  RH  027%=      5-min Rain = 0
KNH1 121820Z 19014KT 06/M12 A302 RMK A01 T00631115  RH  027%=      5-min Rain = 0
KNH1 121821Z 17013KT 06/M12 A302 RMK A01 T00611115  RH  027%=      5-min Rain = 0
KNH1 121822Z 17013KT 06/M11 A302 RMK A01 T00611114  RH  027%=      5-min Rain = 0
KNH1 121823Z 18015KT 06/M12 A302 RMK A01 T00611115  RH  027%=      5-min Rain = 0
KNH1 121824Z 19013KT 06/M11 A302 RMK A01 T00621114  RH  027%=      5-min Rain = 0
KNH1 121825Z 18011KT 06/M11 A302 RMK A01 T00601114  RH  027%=      5-min Rain = 0
KNH1 121826Z 18011KT 06/M11 A302 RMK A01 T00611114  RH  027%=      5-min Rain = 0
KNH1 121827Z 18014G19KT 06/M12 A302 RMK A01 T00601115  RH  027%=      5-min Rain = 0
KNH1 121828Z 18015KT 06/M11 A302 RMK A01 T00611113  RH  027%=      5-min Rain = 0
KNH1 121829Z 18015KT 06/M11 A302 RMK A01 T00601112  RH  028%=      5-min Rain = 0
KNH1 121830Z 17014KT 06/M11 A302 RMK A01 T00611110  RH  028%=      5-min Rain = 0
KNH1 121831Z 18012KT 06/M11 A3019 RMK A01 T00601111  RH  028%=      5-min Rain = 0
KNH1 121832Z 18014KT 06/M11 A3019 RMK A01 T00601110  RH  028%=      5-min Rain = 0
KNH1 121833Z 18015KT 06/M11 A3019 RMK A01 T00601111  RH  028%=      5-min Rain = 0
KNH1 121834Z 18012KT 06/M11 A3019 RMK A01 T00601111  RH  028%=      5-min Rain = 0
KNH1 121835Z 17010KT 06/M11 A3019 RMK A01 T00621110  RH  028%=      5-min Rain = 0
KNH1 121836Z 18011KT 06/M11 A3019 RMK A01 T00621110  RH  028%=      5-min Rain = 0
KNH1 121837Z 17010KT 06/M11 A3019 RMK A01 T00631109  RH  028%=      5-min Rain = 0
KNH1 121838Z 18011KT 07/M11 A3019 RMK A01 T00651108  RH  028%=      5-min Rain = 0
KNH1 121839Z 16013KT 07/M11 A3019 RMK A01 T00671108  RH  027%=      5-min Rain = 0
KNH1 121840Z 16013KT 07/M11 A3019 RMK A01 T00651111  RH  027%=      5-min Rain = 0
KNH1 121841Z 18013KT 07/M11 A3019 RMK A01 T00651111  RH  027%=      5-min Rain = 0
KNH1 121842Z 17013G19KT 07/M11 A3019 RMK A01 T00651109  RH  027%=      5-min Rain = 0
KNH1 121843Z 18013KT 06/M11 A3019 RMK A01 T00641111  RH  027%=      5-min Rain = 0
KNH1 121844Z 18013KT 06/M11 A3018 RMK A01 T00631110  RH  028%=      5-min Rain = 0
KNH1 121845Z 17012KT 06/M11 A3018 RMK A01 T00641109  RH  028%=      5-min Rain = 0
KNH1 121846Z 18015KT 06/M11 A3018 RMK A01 T00631111  RH  028%=      5-min Rain = 0
KNH1 121847Z 18015KT 06/M11 A3018 RMK A01 T00631110  RH  028%=      5-min Rain = 0
KNH1 121848Z 18011KT 06/M11 A3018 RMK A01 T00641109  RH  028%=      5-min Rain = 0
KNH1 121849Z 18014KT 06/M11 A3018 RMK A01 T00641109  RH  028%=      5-min Rain = 0
KNH1 121850Z 18012KT 06/M11 A3018 RMK A01 T00641109  RH  028%=      5-min Rain = 0
KNH1 121851Z 18011KT 06/M11 A3019 RMK A01 T00641109  RH  028%=      5-min Rain = 0
KNH1 121852Z 18010KT 06/M11 A3019 RMK A01 T00631110  RH  028%=      5-min Rain = 0
KNH1 121853Z 19010KT 06/M11 A3019 RMK A01 T00631109  RH  028%=      5-min Rain = 0
KNH1 121854Z 19014KT 06/M11 A3019 RMK A01 T00631108  RH  028%=      5-min Rain = 0
KNH1 121855Z 17013KT 06/M11 A3018 RMK A01 T00641108  RH  028%=      5-min Rain = 0
KNH1 121856Z 17011G16KT 06/M11 A3018 RMK A01 T00641108  RH  028%=      5-min Rain = 0
KNH1 121857Z 17011G16KT 06/M11 A3018 RMK A01 T00631108  RH  028%=      5-min Rain = 0
KNH1 121858Z 17013KT 06/M11 A3018 RMK A01 T00631108  RH  028%=      5-min Rain = 0
KNH1 121859Z 16013G18KT 06/M11 A3018 RMK A01 T00621109  RH  028%=      5-min Rain = 0
KNH1 121900Z 17014G20KT 06/M11 A3018 RMK A01 T00621108  RH  028%=      5-min Rain = 0
KNH1 121901Z 17013KT 06/M11 A3018 RMK A01 T00621107  RH  029%=      5-min Rain = 0
KNH1 121902Z 18010KT 06/M11 A3018 RMK A01 T00631107  RH  029%=      5-min Rain = 0
KNH1 121903Z 18010KT 06/M11 A3018 RMK A01 T00641105  RH  029%=      5-min Rain = 0
KNH1 121904Z 18012KT 07/M10 A3018 RMK A01 T00681102  RH  029%=      5-min Rain = 0
KNH1 121905Z 18010KT 07/M10 A3018 RMK A01 T00701103  RH  028%=      5-min Rain = 0
KNH1 121906Z 19010KT 07/M10 A3018 RMK A01 T00701103  RH  028%=      5-min Rain = 0
KNH1 121907Z 19013KT 07/M10 A3018 RMK A01 T00701103  RH  028%=      5-min Rain = 0
KNH1 121908Z 18013KT 07/M10 A3018 RMK A01 T00701102  RH  028%=      5-min Rain = 0
KNH1 121909Z 18012KT 07/M10 A3018 RMK A01 T00701103  RH  028%=      5-min Rain = 0
KNH1 121910Z 18010KT 07/M10 A3018 RMK A01 T00691103  RH  028%=      5-min Rain = 0
KNH1 121911Z 18011KT 07/M10 A3017 RMK A01 T00691103  RH  028%=      5-min Rain = 0
KNH1 121912Z 18015KT 07/M10 A3017 RMK A01 T00701103  RH  028%=      5-min Rain = 0
KNH1 121913Z 19014KT 07/M10 A3017 RMK A01 T00701104  RH  028%=      5-min Rain = 0
KNH1 121914Z 19013KT 07/M10 A3017 RMK A01 T00701103  RH  028%=      5-min Rain = 0
KNH1 121915Z 19013KT 07/M10 A3017 RMK A01 T00731102  RH  028%=      5-min Rain = 0
KNH1 121916Z 18010G15KT 07/M10 A3017 RMK A01 T00731102  RH  028%=      5-min Rain = 0
KNH1 121917Z 19011KT 08/M10 A3017 RMK A01 T00751101  RH  027%=      5-min Rain = 0
KNH1 121918Z 18011KT 08/M10 A3017 RMK A01 T00761102  RH  027%=      5-min Rain = 0
KNH1 121919Z 18013KT 08/M10 A3016 RMK A01 T00761102  RH  027%=      5-min Rain = 0
KNH1 121920Z 19012KT 08/M10 A3016 RMK A01 T00791100  RH  027%=      5-min Rain = 0
KNH1 121921Z 18012KT 08/M10 A3016 RMK A01 T00841099  RH  026%=      5-min Rain = 0
KNH1 121922Z 19010KT 09/M10 A3016 RMK A01 T00851100  RH  026%=      5-min Rain = 0
KNH1 121923Z 18011KT 08/M10 A3016 RMK A01 T00831100  RH  026%=      5-min Rain = 0
KNH1 121924Z 18012KT 08/M10 A3016 RMK A01 T00821103  RH  026%=      5-min Rain = 0
KNH1 121925Z 19013G18KT 08/M11 A3016 RMK A01 T00811105  RH  026%=      5-min Rain = 0
KNH1 121926Z 19015KT 08/M10 A3016 RMK A01 T00831104  RH  025%=      5-min Rain = 0
KNH1 121927Z 19012KT 08/M11 A3016 RMK A01 T00821107  RH  025%=      5-min Rain = 0
KNH1 121928Z 20011KT 08/M11 A3016 RMK A01 T00821106  RH  025%=      5-min Rain = 0
KNH1 121929Z 18013KT 08/M11 A3016 RMK A01 T00811107  RH  025%=      5-min Rain = 0
KNH1 121930Z 18014KT 08/M11 A3016 RMK A01 T00821105  RH  025%=      5-min Rain = 0
KNH1 121931Z 19015KT 08/M11 A3016 RMK A01 T00821106  RH  025%=      5-min Rain = 0
KNH1 121932Z 19012KT 08/M11 A3016 RMK A01 T00841105  RH  025%=      5-min Rain = 0
KNH1 121933Z 18011KT 08/M11 A3016 RMK A01 T00831107  RH  025%=      5-min Rain = 0
KNH1 121934Z 18009KT 08/M11 A3016 RMK A01 T00811107  RH  025%=      5-min Rain = 0
KNH1 121935Z 17011KT 08/M10 A3016 RMK A01 T00841104  RH  025%=      5-min Rain = 0
KNH1 121936Z 18011KT 08/M11 A3016 RMK A01 T00841105  RH  025%=      5-min Rain = 0
KNH1 121937Z 20012KT 08/M11 A3015 RMK A01 T00831106  RH  025%=      5-min Rain = 0
KNH1 121938Z 20016KT 08/M11 A3015 RMK A01 T00821106  RH  025%=      5-min Rain = 0
KNH1 121939Z 20015KT 08/M10 A3015 RMK A01 T00831104  RH  025%=      5-min Rain = 0
KNH1 121940Z 20013KT 08/M11 A3015 RMK A01 T00841105  RH  025%=      5-min Rain = 0
KNH1 121941Z 19013KT 09/M10 A3015 RMK A01 T00851104  RH  025%=      5-min Rain = 0
KNH1 121942Z 19011KT 09/M10 A3015 RMK A01 T00861104  RH  025%=      5-min Rain = 0
KNH1 121943Z 18010KT 09/M11 A3015 RMK A01 T00851105  RH  025%=      5-min Rain = 0
KNH1 121944Z 20012KT 08/M11 A3015 RMK A01 T00841106  RH  025%=      5-min Rain = 0
KNH1 121945Z 19013KT 09/M10 A3015 RMK A01 T00851104  RH  025%=      5-min Rain = 0
KNH1 121946Z 20014KT 09/M10 A3015 RMK A01 T00861104  RH  025%=      5-min Rain = 0
KNH1 121947Z 19009KT 09/M10 A3015 RMK A01 T00861104  RH  025%=      5-min Rain = 0
KNH1 121948Z 21010KT 09/M10 A3015 RMK A01 T00881102  RH  025%=      5-min Rain = 0
KNH1 121949Z 20014KT 09/M10 A3015 RMK A01 T00891101  RH  025%=      5-min Rain = 0
KNH1 121950Z 19012KT 09/M10 A3015 RMK A01 T00881101  RH  025%=      5-min Rain = 0
KNH1 121951Z 20012KT 09/M10 A3015 RMK A01 T00871101  RH  025%=      5-min Rain = 0
KNH1 121952Z 20011KT 09/M10 A3015 RMK A01 T00851102  RH  025%=      5-min Rain = 0
KNH1 121953Z 19012KT 09/M10 A3014 RMK A01 T00851101  RH  026%=      5-min Rain = 0
KNH1 121954Z 19015KT 09/M10 A3014 RMK A01 T00881102  RH  025%=      5-min Rain = 0
KNH1 121955Z 19014KT 09/M11 A3014 RMK A01 T00881105  RH  024%=      5-min Rain = 0
KNH1 121956Z 18013KT 09/M11 A3014 RMK A01 T00861105  RH  025%=      5-min Rain = 0
KNH1 121957Z 19011KT 09/M11 A3014 RMK A01 T00851105  RH  025%=      5-min Rain = 0
KNH1 121958Z 19011KT 09/M10 A3014 RMK A01 T00861104  RH  025%=      5-min Rain = 0
KNH1 121959Z 20013G18KT 09/M10 A3014 RMK A01 T00891103  RH  025%=      5-min Rain = 0
KNH1 122000Z 20016KT 09/M10 A3014 RMK A01 T00911101  RH  025%=      5-min Rain = 0
KNH1 122001Z 21013KT 09/M10 A3014 RMK A01 T00891103  RH  025%=      5-min Rain = 0
KNH1 122002Z 20011KT 09/M10 A3015 RMK A01 T00901100  RH  025%=      5-min Rain = 0
KNH1 122003Z 20011G17KT 09/M10 A3014 RMK A01 T00911100  RH  025%=      5-min Rain = 0
KNH1 122004Z 20014KT 09/M10 A3014 RMK A01 T00911102  RH  024%=      5-min Rain = 0
KNH1 122005Z 21013KT 09/M10 A3014 RMK A01 T00901103  RH  024%=      5-min Rain = 0
KNH1 122006Z 21011KT 09/M10 A3014 RMK A01 T00901103  RH  024%=      5-min Rain = 0
KNH1 122007Z 21014KT 09/M10 A3014 RMK A01 T00891103  RH  025%=      5-min Rain = 0
KNH1 122008Z 21014KT 09/M10 A3014 RMK A01 T00901102  RH  025%=      5-min Rain = 0
KNH1 122009Z 21012KT 09/M10 A3014 RMK A01 T00911102  RH  025%=      5-min Rain = 0
KNH1 122010Z 20011KT 09/M10 A3014 RMK A01 T00901102  RH  024%=      5-min Rain = 0
KNH1 122011Z 20012G17KT 09/M10 A3014 RMK A01 T00881103  RH  025%=      5-min Rain = 0
KNH1 122012Z 19014KT 09/M10 A3014 RMK A01 T00901100  RH  025%=      5-min Rain = 0
KNH1 122013Z 19013KT 09/M10 A3014 RMK A01 T00911101  RH  025%=      5-min Rain = 0
KNH1 122014Z 19013KT 09/M10 A3014 RMK A01 T00881102  RH  025%=      5-min Rain = 0
KNH1 122015Z 21013KT 09/M10 A3014 RMK A01 T00911099  RH  025%=      5-min Rain = 0
KNH1 122016Z 21014KT 09/M10 A3014 RMK A01 T00921100  RH  025%=      5-min Rain = 0
KNH1 122017Z 21011KT 09/M10 A3014 RMK A01 T00901101  RH  025%=      5-min Rain = 0
KNH1 122018Z 19012KT 09/M10 A3014 RMK A01 T00891101  RH  025%=      5-min Rain = 0
KNH1 122019Z 18012KT 09/M10 A3014 RMK A01 T00881101  RH  025%=      5-min Rain = 0
KNH1 122020Z 19011KT 09/M10 A3014 RMK A01 T00881101  RH  025%=      5-min Rain = 0
KNH1 122021Z 19012KT 09/M10 A3014 RMK A01 T00871101  RH  025%=      5-min Rain = 0
KNH1 122022Z 19011KT 09/M10 A3014 RMK A01 T00881100  RH  025%=      5-min Rain = 0
KNH1 122023Z 19012KT 09/M10 A3014 RMK A01 T00891100  RH  025%=      5-min Rain = 0
KNH1 122024Z 20012KT 09/M10 A3014 RMK A01 T00901100  RH  025%=      5-min Rain = 0
KNH1 122025Z 20013KT 09/M10 A3014 RMK A01 T00911099  RH  025%=      5-min Rain = 0
KNH1 122026Z 20013KT 09/M10 A3014 RMK A01 T00921099  RH  025%=      5-min Rain = 0
KNH1 122027Z 20014KT 09/M10 A3014 RMK A01 T00921098  RH  025%=      5-min Rain = 0
KNH1 122028Z 21011KT 09/M10 A3014 RMK A01 T00911100  RH  025%=      5-min Rain = 0
KNH1 122029Z 19010KT 09/M10 A3014 RMK A01 T00891100  RH  025%=      5-min Rain = 0
KNH1 122030Z 18011KT 09/M10 A3014 RMK A01 T00921096  RH  025%=      5-min Rain = 0
KNH1 122031Z 19012KT 10/M10 A3014 RMK A01 T00961096  RH  025%=      5-min Rain = 0
KNH1 122032Z 18012KT 10/M10 A3014 RMK A01 T00951098  RH  025%=      5-min Rain = 0
KNH1 122033Z 18010KT 09/M10 A3014 RMK A01 T00921101  RH  025%=      5-min Rain = 0
KNH1 122034Z 18009KT 09/M10 A3014 RMK A01 T00901099  RH  025%=      5-min Rain = 0
KNH1 122035Z 19010KT 09/M10 A3014 RMK A01 T00921098  RH  025%=      5-min Rain = 0
KNH1 122036Z 16010KT 09/M10 A3014 RMK A01 T00911099  RH  025%=      5-min Rain = 0
KNH1 122037Z 18009KT 09/M10 A3014 RMK A01 T00911099  RH  025%=      5-min Rain = 0
KNH1 122038Z 17009KT 09/M10 A3014 RMK A01 T00911099  RH  025%=      5-min Rain = 0
KNH1 122039Z 17008KT 09/M10 A3014 RMK A01 T00911099  RH  025%=      5-min Rain = 0
KNH1 122040Z 19010KT 09/M10 A3014 RMK A01 T00931097  RH  025%=      5-min Rain = 0
KNH1 122041Z 19011KT 09/M10 A3014 RMK A01 T00941097  RH  025%=      5-min Rain = 0
KNH1 122042Z 20014KT 10/M10 A3014 RMK A01 T00951097  RH  025%=      5-min Rain = 0
KNH1 122043Z 20011KT 10/M10 A3014 RMK A01 T00951098  RH  024%=      5-min Rain = 0
KNH1 122044Z 21011KT 09/M10 A3014 RMK A01 T00941097  RH  025%=      5-min Rain = 0
KNH1 122045Z 19012KT 10/M10 A3014 RMK A01 T00951098  RH  025%=      5-min Rain = 0
KNH1 122046Z 18009KT 10/M10 A3014 RMK A01 T00951099  RH  024%=      5-min Rain = 0
KNH1 122047Z 17009KT 10/M10 A3014 RMK A01 T00951098  RH  025%=      5-min Rain = 0
KNH1 122048Z 18009KT 10/M10 A3014 RMK A01 T00951098  RH  024%=      5-min Rain = 0
KNH1 122049Z 17010KT 10/M10 A3014 RMK A01 T00951099  RH  024%=      5-min Rain = 0
KNH1 122050Z 19007KT 09/M10 A3014 RMK A01 T00931099  RH  025%=      5-min Rain = 0
KNH1 122051Z 21009KT 10/M10 A3014 RMK A01 T00951097  RH  025%=      5-min Rain = 0
KNH1 122052Z 19010KT 10/M10 A3014 RMK A01 T00951097  RH  025%=      5-min Rain = 0
KNH1 122053Z 20009KT 09/M10 A3014 RMK A01 T00941098  RH  025%=      5-min Rain = 0
KNH1 122054Z 19007KT 09/M10 A3014 RMK A01 T00941098  RH  025%=      5-min Rain = 0
KNH1 122055Z 19012KT 10/M10 A3014 RMK A01 T00961096  RH  025%=      5-min Rain = 0
KNH1 122056Z 19012KT 10/M10 A3014 RMK A01 T00961097  RH  025%=      5-min Rain = 0
KNH1 122057Z 19012KT 10/M10 A3014 RMK A01 T00961097  RH  025%=      5-min Rain = 0
KNH1 122058Z 19011KT 10/M10 A3014 RMK A01 T00951098  RH  025%=      5-min Rain = 0
KNH1 122059Z 18010KT 09/M10 A3014 RMK A01 T00941098  RH  025%=      5-min Rain = 0
KNH1 122100Z 17008KT 10/M10 A3014 RMK A01 T00951097  RH  025%=      5-min Rain = 0
KNH1 122101Z 17008KT 10/M10 A3014 RMK A01 T00961096  RH  025%=      5-min Rain = 0
KNH1 122102Z 18008KT 10/M10 A3014 RMK A01 T00971097  RH  024%=      5-min Rain = 0
KNH1 122103Z 20010KT 10/M10 A3014 RMK A01 T00991095  RH  025%=      5-min Rain = 0
KNH1 122104Z 21010KT 10/M10 A3014 RMK A01 T01001095  RH  024%=      5-min Rain = 0
KNH1 122105Z 20009KT 10/M10 A3014 RMK A01 T00981096  RH  024%=      5-min Rain = 0
KNH1 122106Z 19009KT 10/M10 A3014 RMK A01 T00981096  RH  025%=      5-min Rain = 0
KNH1 122107Z 20009KT 10/M09 A3014 RMK A01 T01001094  RH  025%=      5-min Rain = 0
KNH1 122108Z 18010KT 10/M10 A3014 RMK A01 T01011095  RH  024%=      5-min Rain = 0
KNH1 122109Z 18010KT 10/M10 A3014 RMK A01 T00991097  RH  024%=      5-min Rain = 0
KNH1 122110Z 19011KT 10/M10 A3014 RMK A01 T00991096  RH  024%=      5-min Rain = 0
KNH1 122111Z 18008KT 10/M10 A3014 RMK A01 T00991096  RH  024%=      5-min Rain = 0
KNH1 122112Z 17008KT 10/M10 A3014 RMK A01 T00991096  RH  024%=      5-min Rain = 0
KNH1 122113Z 19010KT 10/M10 A3014 RMK A01 T00991095  RH  024%=      5-min Rain = 0
KNH1 122114Z 21008KT 10/M09 A3014 RMK A01 T01001094  RH  024%=      5-min Rain = 0
KNH1 122115Z 21009KT 10/M09 A3014 RMK A01 T00991094  RH  025%=      5-min Rain = 0
KNH1 122116Z 19009KT 10/M09 A3014 RMK A01 T01031092  RH  024%=      5-min Rain = 0
KNH1 122117Z 18011KT 10/M09 A3014 RMK A01 T01041093  RH  024%=      5-min Rain = 0
KNH1 122118Z 17010KT 10/M10 A3014 RMK A01 T01021096  RH  024%=      5-min Rain = 0
KNH1 122119Z 17010KT 10/M10 A3013 RMK A01 T00991097  RH  024%=      5-min Rain = 0
KNH1 122120Z 18008KT 10/M10 A3013 RMK A01 T00981096  RH  024%=      5-min Rain = 0
KNH1 122121Z 20011KT 10/M09 A3013 RMK A01 T01001093  RH  025%=      5-min Rain = 0
KNH1 122122Z 20010KT 10/M09 A3013 RMK A01 T01011094  RH  024%=      5-min Rain = 0
KNH1 122123Z 19011KT 10/M09 A3013 RMK A01 T01001094  RH  024%=      5-min Rain = 0
KNH1 122124Z 19010KT 10/M10 A3013 RMK A01 T01001095  RH  024%=      5-min Rain = 0
KNH1 122125Z 19012KT 10/M10 A3013 RMK A01 T00981096  RH  024%=      5-min Rain = 0
KNH1 122126Z 19012KT 10/M09 A3013 RMK A01 T00981094  RH  025%=      5-min Rain = 0
KNH1 122127Z 20012KT 10/M10 A3013 RMK A01 T00981095  RH  025%=      5-min Rain = 0
KNH1 122128Z 19008KT 10/M10 A3013 RMK A01 T00981095  RH  025%=      5-min Rain = 0
KNH1 122129Z 19009KT 10/M09 A3013 RMK A01 T00991093  RH  025%=      5-min Rain = 0
KNH1 122130Z 19012KT 10/M09 A3013 RMK A01 T01021092  RH  025%=      5-min Rain = 0
KNH1 122131Z 19011KT 10/M09 A3013 RMK A01 T01031092  RH  024%=      5-min Rain = 0
KNH1 122132Z 18009KT 10/M09 A3013 RMK A01 T01021094  RH  024%=      5-min Rain = 0
KNH1 122133Z 19008KT 10/M09 A3013 RMK A01 T01011094  RH  024%=      5-min Rain = 0
KNH1 122134Z 18011KT 10/M09 A3013 RMK A01 T01021093  RH  024%=      5-min Rain = 0
KNH1 122135Z 18008KT 10/M09 A3013 RMK A01 T01031092  RH  024%=      5-min Rain = 0
KNH1 122136Z 18006KT 10/M09 A3013 RMK A01 T01011094  RH  024%=      5-min Rain = 0
KNH1 122137Z 18010KT 10/M09 A3013 RMK A01 T01021093  RH  024%=      5-min Rain = 0
KNH1 122138Z 19012KT 10/M09 A3013 RMK A01 T01021093  RH  024%=      5-min Rain = 0
KNH1 122139Z 18010KT 10/M09 A3013 RMK A01 T01011094  RH  024%=      5-min Rain = 0
KNH1 122140Z 18010KT 10/M09 A3013 RMK A01 T00991094  RH  025%=      5-min Rain = 0
KNH1 122141Z 18011KT 10/M09 A3013 RMK A01 T01001093  RH  025%=      5-min Rain = 0
KNH1 122142Z 18009KT 10/M09 A3013 RMK A01 T01001093  RH  025%=      5-min Rain = 0
KNH1 122143Z 19010KT 10/M09 A3013 RMK A01 T01021092  RH  025%=      5-min Rain = 0
KNH1 122144Z 19011KT 10/M09 A3013 RMK A01 T01031092  RH  024%=      5-min Rain = 0
KNH1 122145Z 18011KT 10/M09 A3013 RMK A01 T01031092  RH  024%=      5-min Rain = 0
KNH1 122146Z 18008KT 10/M09 A3013 RMK A01 T01001094  RH  024%=      5-min Rain = 0
KNH1 122147Z 18008KT 10/M09 A3013 RMK A01 T01001093  RH  025%=      5-min Rain = 0
KNH1 122148Z 16011KT 10/M09 A3013 RMK A01 T01021092  RH  025%=      5-min Rain = 0
KNH1 122149Z 16011KT 10/M09 A3013 RMK A01 T01021093  RH  024%=      5-min Rain = 0
KNH1 122150Z 17010KT 10/M09 A3013 RMK A01 T01011094  RH  024%=      5-min Rain = 0
KNH1 122151Z 16009KT 10/M09 A3013 RMK A01 T01001094  RH  024%=      5-min Rain = 0
KNH1 122152Z 18010KT 10/M09 A3013 RMK A01 T01001093  RH  025%=      5-min Rain = 0
KNH1 122153Z 20012G17KT 10/M09 A3013 RMK A01 T01021093  RH  025%=      5-min Rain = 0
KNH1 122154Z 18010KT 10/M09 A3013 RMK A01 T01021092  RH  025%=      5-min Rain = 0
KNH1 122155Z 18011KT 10/M09 A3013 RMK A01 T01041092  RH  024%=      5-min Rain = 0
KNH1 122156Z 18011KT 10/M09 A3013 RMK A01 T01041092  RH  024%=      5-min Rain = 0
KNH1 122157Z 17011KT 10/M09 A3013 RMK A01 T01031093  RH  024%=      5-min Rain = 0
KNH1 122158Z 17009KT 10/M09 A3013 RMK A01 T01021093  RH  024%=      5-min Rain = 0
KNH1 122159Z 17008KT 10/M09 A3013 RMK A01 T01011094  RH  024%=      5-min Rain = 0
KNH1 122200Z 16007KT 10/M09 A3013 RMK A01 T01011092  RH  025%=      5-min Rain = 0
KNH1 122201Z 17009KT 10/M09 A3013 RMK A01 T01031091  RH  025%=      5-min Rain = 0
KNH1 122202Z 17009KT 10/M09 A3013 RMK A01 T01041092  RH  024%=      5-min Rain = 0
KNH1 122203Z 17008KT 10/M09 A3013 RMK A01 T01031093  RH  024%=      5-min Rain = 0
KNH1 122204Z 16009G14KT 10/M09 A3013 RMK A01 T01031092  RH  024%=      5-min Rain = 0
KNH1 122205Z 16011KT 10/M09 A3013 RMK A01 T01041092  RH  024%=      5-min Rain = 0
KNH1 122206Z 16008KT 10/M09 A3013 RMK A01 T01041093  RH  024%=      5-min Rain = 0
KNH1 122207Z 17010KT 10/M09 A3013 RMK A01 T01041092  RH  024%=      5-min Rain = 0
KNH1 122208Z 17011KT 11/M09 A3013 RMK A01 T01051092  RH  024%=      5-min Rain = 0
KNH1 122209Z 17009KT 10/M09 A3013 RMK A01 T01031093  RH  024%=      5-min Rain = 0
KNH1 122210Z 18009KT 10/M09 A3013 RMK A01 T01031092  RH  024%=      5-min Rain = 0
KNH1 122211Z 18010KT 10/M09 A3013 RMK A01 T01041091  RH  024%=      5-min Rain = 0
KNH1 122212Z 18010KT 11/M09 A3013 RMK A01 T01051091  RH  024%=      5-min Rain = 0
KNH1 122213Z 17009KT 10/M09 A3013 RMK A01 T01041092  RH  024%=      5-min Rain = 0
KNH1 122214Z 16008KT 10/M09 A3013 RMK A01 T01041092  RH  024%=      5-min Rain = 0
KNH1 122215Z 16009KT 10/M09 A3013 RMK A01 T01041092  RH  024%=      5-min Rain = 0
KNH1 122216Z 18009KT 10/M09 A3013 RMK A01 T01041092  RH  024%=      5-min Rain = 0
KNH1 122217Z 16007KT 10/M09 A3013 RMK A01 T01041092  RH  024%=      5-min Rain = 0
KNH1 122218Z 16010KT 11/M09 A3013 RMK A01 T01061091  RH  024%=      5-min Rain = 0
KNH1 122219Z 16010KT 11/M09 A3013 RMK A01 T01061092  RH  024%=      5-min Rain = 0
KNH1 122220Z 16010KT 11/M09 A3013 RMK A01 T01051093  RH  024%=      5-min Rain = 0
KNH1 122221Z 15009KT 10/M09 A3013 RMK A01 T01031093  RH  024%=      5-min Rain = 0
KNH1 122222Z 17008G13KT 10/M09 A3013 RMK A01 T01041092  RH  024%=      5-min Rain = 0
KNH1 122223Z 16009KT 10/M09 A3013 RMK A01 T01041092  RH  024%=      5-min Rain = 0
KNH1 122224Z 16010KT 11/M09 A3013 RMK A01 T01051092  RH  024%=      5-min Rain = 0
KNH1 122225Z 17010KT 11/M09 A3013 RMK A01 T01051091  RH  024%=      5-min Rain = 0
KNH1 122226Z 17010KT 11/M09 A3013 RMK A01 T01061091  RH  024%=      5-min Rain = 0
KNH1 122227Z 18009KT 11/M09 A3013 RMK A01 T01061091  RH  024%=      5-min Rain = 0
KNH1 122228Z 17010KT 11/M09 A3013 RMK A01 T01051091  RH  024%=      5-min Rain = 0
KNH1 122229Z 18008KT 11/M09 A3013 RMK A01 T01051091  RH  024%=      5-min Rain = 0
KNH1 122230Z 17010KT 11/M09 A3013 RMK A01 T01051090  RH  024%=      5-min Rain = 0
KNH1 122231Z 16011KT 11/M09 A3013 RMK A01 T01051091  RH  024%=      5-min Rain = 0
KNH1 122232Z 16012KT 11/M09 A3013 RMK A01 T01051092  RH  024%=      5-min Rain = 0
KNH1 122233Z 16010KT 10/M09 A3012 RMK A01 T01041092  RH  024%=      5-min Rain = 0
KNH1 122234Z 16010KT 10/M09 A3012 RMK A01 T01031092  RH  024%=      5-min Rain = 0
KNH1 122235Z 17007KT 10/M09 A3012 RMK A01 T01041091  RH  024%=      5-min Rain = 0
KNH1 122236Z 17011KT 11/M09 A3012 RMK A01 T01061090  RH  024%=      5-min Rain = 0
KNH1 122237Z 17009KT 11/M09 A3012 RMK A01 T01061091  RH  024%=      5-min Rain = 0
KNH1 122238Z 16007KT 11/M09 A3012 RMK A01 T01051092  RH  024%=      5-min Rain = 0
KNH1 122239Z 16009KT 11/M09 A3012 RMK A01 T01051091  RH  024%=      5-min Rain = 0
KNH1 122240Z 15008KT 11/M09 A3012 RMK A01 T01051092  RH  024%=      5-min Rain = 0
KNH1 122241Z 14009KT 11/M09 A3012 RMK A01 T01051092  RH  024%=      5-min Rain = 0
KNH1 122242Z 15009KT 11/M09 A3012 RMK A01 T01051091  RH  024%=      5-min Rain = 0
KNH1 122243Z 16008KT 11/M09 A3012 RMK A01 T01051091  RH  024%=      5-min Rain = 0
KNH1 122244Z 18007KT 11/M09 A3012 RMK A01 T01061089  RH  024%=      5-min Rain = 0
KNH1 122245Z 17010G15KT 11/M09 A3012 RMK A01 T01071089  RH  024%=      5-min Rain = 0
KNH1 122246Z 16011KT 11/M09 A3012 RMK A01 T01061091  RH  024%=      5-min Rain = 0
KNH1 122247Z 15007KT 10/M09 A3012 RMK A01 T01041093  RH  024%=      5-min Rain = 0
KNH1 122248Z 15011KT 10/M09 A3012 RMK A01 T01041092  RH  024%=      5-min Rain = 0
KNH1 122249Z 14007KT 10/M09 A3012 RMK A01 T01041092  RH  024%=      5-min Rain = 0
KNH1 122250Z 16008KT 10/M09 A3012 RMK A01 T01041091  RH  024%=      5-min Rain = 0
KNH1 122251Z 17010G15KT 11/M09 A3012 RMK A01 T01051091  RH  024%=      5-min Rain = 0
KNH1 122252Z 17011KT 11/M09 A3012 RMK A01 T01051090  RH  024%=      5-min Rain = 0
KNH1 122253Z 17009KT 10/M09 A3012 RMK A01 T01041091  RH  024%=      5-min Rain = 0
KNH1 122254Z 17007KT 10/M09 A3012 RMK A01 T01041090  RH  025%=      5-min Rain = 0
KNH1 122255Z 17008KT 11/M09 A3012 RMK A01 T01051090  RH  025%=      5-min Rain = 0
KNH1 122256Z 16008KT 11/M09 A3012 RMK A01 T01051090  RH  024%=      5-min Rain = 0
KNH1 122257Z 17010KT 11/M09 A3013 RMK A01 T01051090  RH  024%=      5-min Rain = 0
KNH1 122258Z 16009KT 11/M09 A3013 RMK A01 T01051090  RH  024%=      5-min Rain = 0
KNH1 122259Z 16009KT 11/M09 A3013 RMK A01 T01051091  RH  024%=      5-min Rain = 0
KNH1 122300Z 17009KT 10/M09 A3013 RMK A01 T01041090  RH  024%=      5-min Rain = 0
KNH1 122301Z 16011KT 10/M09 A3013 RMK A01 T01041091  RH  024%=      5-min Rain = 0
KNH1 122302Z 16009KT 10/M09 A3013 RMK A01 T01031092  RH  024%=      5-min Rain = 0
KNH1 122303Z 16010KT 10/M09 A3013 RMK A01 T01031092  RH  025%=      5-min Rain = 0
KNH1 122304Z 16012KT 10/M09 A3013 RMK A01 T01031091  RH  025%=      5-min Rain = 0
KNH1 122305Z 16010KT 10/M09 A3013 RMK A01 T01021093  RH  024%=      5-min Rain = 0
KNH1 122306Z 16009KT 10/M09 A3013 RMK A01 T01011093  RH  025%=      5-min Rain = 0
KNH1 122307Z 16008KT 10/M09 A3013 RMK A01 T01011093  RH  025%=      5-min Rain = 0
KNH1 122308Z 16010KT 10/M09 A3013 RMK A01 T01021092  RH  025%=      5-min Rain = 0
KNH1 122309Z 16010KT 10/M09 A3013 RMK A01 T01021092  RH  025%=      5-min Rain = 0
KNH1 122310Z 16010KT 10/M09 A3013 RMK A01 T01021092  RH  025%=      5-min Rain = 0
KNH1 122311Z 16008KT 10/M09 A3013 RMK A01 T01021092  RH  025%=      5-min Rain = 0
KNH1 122312Z 16009KT 10/M09 A3013 RMK A01 T01011092  RH  025%=      5-min Rain = 0
KNH1 122313Z 16008KT 10/M09 A3013 RMK A01 T01011092  RH  025%=      5-min Rain = 0
KNH1 122314Z 16008KT 10/M09 A3013 RMK A01 T01011092  RH  025%=      5-min Rain = 0
KNH1 122315Z 16006KT 10/M09 A3013 RMK A01 T01021092  RH  025%=      5-min Rain = 0
KNH1 122316Z 15006KT 10/M09 A3013 RMK A01 T01021092  RH  025%=      5-min Rain = 0
KNH1 122317Z 15006KT 10/M09 A3013 RMK A01 T01011092  RH  025%=      5-min Rain = 0
KNH1 122318Z 15007KT 10/M09 A3013 RMK A01 T01011093  RH  025%=      5-min Rain = 0
KNH1 122319Z 16008KT 10/M09 A3013 RMK A01 T01011093  RH  025%=      5-min Rain = 0
KNH1 122320Z 16009KT 10/M09 A3013 RMK A01 T01011093  RH  025%=      5-min Rain = 0
KNH1 122321Z 16007KT 10/M09 A3013 RMK A01 T01001092  RH  025%=      5-min Rain = 0
KNH1 122322Z 16010KT 10/M09 A3013 RMK A01 T01001092  RH  025%=      5-min Rain = 0
KNH1 122323Z 16009KT 10/M09 A3013 RMK A01 T00991093  RH  025%=      5-min Rain = 0
KNH1 122324Z 16008KT 10/M09 A3013 RMK A01 T00991092  RH  025%=      5-min Rain = 0
KNH1 122325Z 16008KT 10/M09 A3013 RMK A01 T00991092  RH  025%=      5-min Rain = 0
KNH1 122326Z 16008KT 10/M09 A3013 RMK A01 T00991093  RH  025%=      5-min Rain = 0
KNH1 122327Z 16008KT 10/M09 A3013 RMK A01 T00991092  RH  025%=      5-min Rain = 0
KNH1 122328Z 16008KT 10/M09 A3013 RMK A01 T00981092  RH  025%=      5-min Rain = 0
KNH1 122329Z 16008KT 10/M09 A3013 RMK A01 T00981091  RH  025%=      5-min Rain = 0
KNH1 122330Z 16008KT 10/M09 A3013 RMK A01 T00981090  RH  026%=      5-min Rain = 0
KNH1 122331Z 15009KT 10/M09 A3014 RMK A01 T00971091  RH  026%=      5-min Rain = 0
KNH1 122332Z 16007KT 10/M09 A3014 RMK A01 T00971091  RH  026%=      5-min Rain = 0
KNH1 122333Z 15008KT 10/M09 A3014 RMK A01 T00971091  RH  026%=      5-min Rain = 0
KNH1 122334Z 15007KT 10/M09 A3014 RMK A01 T00961092  RH  026%=      5-min Rain = 0
KNH1 122335Z 15008KT 10/M09 A3014 RMK A01 T00961092  RH  026%=      5-min Rain = 0
KNH1 122336Z 16008KT 10/M09 A3014 RMK A01 T00951092  RH  026%=      5-min Rain = 0
KNH1 122337Z 16007KT 09/M09 A3014 RMK A01 T00941092  RH  026%=      5-min Rain = 0
KNH1 122338Z 15006KT 09/M09 A3014 RMK A01 T00941092  RH  026%=      5-min Rain = 0
KNH1 122339Z 15007KT 09/M09 A3014 RMK A01 T00931092  RH  026%=      5-min Rain = 0
KNH1 122340Z 15007KT 09/M09 A3014 RMK A01 T00921093  RH  026%=      5-min Rain = 0
KNH1 122341Z 15006KT 09/M09 A3014 RMK A01 T00911092  RH  026%=      5-min Rain = 0
KNH1 122342Z 15006KT 09/M09 A3014 RMK A01 T00901093  RH  026%=      5-min Rain = 0
KNH1 122343Z 15006KT 09/M09 A3014 RMK A01 T00901093  RH  027%=      5-min Rain = 0
KNH1 122344Z 15005KT 09/M09 A3014 RMK A01 T00891093  RH  027%=      5-min Rain = 0
KNH1 122345Z 15006KT 09/M09 A3014 RMK A01 T00881094  RH  027%=      5-min Rain = 0
KNH1 122346Z 16005KT 09/M09 A3014 RMK A01 T00871094  RH  027%=      5-min Rain = 0
KNH1 122347Z 15006KT 09/M09 A3014 RMK A01 T00871094  RH  027%=      5-min Rain = 0
KNH1 122348Z 15006KT 09/M09 A3014 RMK A01 T00861094  RH  027%=      5-min Rain = 0
KNH1 122349Z 15006KT 09/M09 A3014 RMK A01 T00861094  RH  027%=      5-min Rain = 0
KNH1 122350Z 14005KT 09/M09 A3014 RMK A01 T00851094  RH  027%=      5-min Rain = 0
KNH1 122351Z 14006KT 09/M09 A3014 RMK A01 T00851094  RH  027%=      5-min Rain = 0
KNH1 122352Z 14006KT 08/M09 A3014 RMK A01 T00841094  RH  027%=      5-min Rain = 0
KNH1 122353Z 14007KT 08/M09 A3014 RMK A01 T00841094  RH  027%=      5-min Rain = 0
KNH1 122354Z 14006KT 08/M09 A3014 RMK A01 T00831094  RH  027%=      5-min Rain = 0
KNH1 122355Z 14007KT 08/M09 A3014 RMK A01 T00831094  RH  027%=      5-min Rain = 0
KNH1 122356Z 14005KT 08/M09 A3015 RMK A01 T00821094  RH  028%=      5-min Rain = 0
KNH1 122357Z 14005KT 08/M09 A3015 RMK A01 T00821094  RH  028%=      5-min Rain = 0
KNH1 122358Z 14006KT 08/M10 A3015 RMK A01 T00811095  RH  028%=      5-min Rain = 0
KNH1 122359Z 14005KT 08/M10 A3015 RMK A01 T00801095  RH  028%=      5-min Rain = 0
KNH1 130000Z 14006KT 08/M10 A3015 RMK A01 T00791095  RH  028%=      5-min Rain = 0
KNH1 130001Z 15006KT 08/M10 A3015 RMK A01 T00791095  RH  028%=      5-min Rain = 0
KNH1 130002Z 14005KT 08/M10 A3015 RMK A01 T00781096  RH  028%=      5-min Rain = 0
KNH1 130003Z 14005KT 08/M10 A3015 RMK A01 T00771096  RH  028%=      5-min Rain = 0
KNH1 130004Z 14004KT 08/M10 A3015 RMK A01 T00761096  RH  028%=      5-min Rain = 0
KNH1 130005Z 14005KT 08/M10 A3015 RMK A01 T00751096  RH  029%=      5-min Rain = 0
KNH1 130006Z 13004KT 07/M10 A3015 RMK A01 T00741096  RH  029%=      5-min Rain = 0
KNH1 130007Z 13005KT 07/M10 A3015 RMK A01 T00731097  RH  029%=      5-min Rain = 0
KNH1 130008Z 13005KT 07/M10 A3015 RMK A01 T00721097  RH  029%=      5-min Rain = 0
KNH1 130009Z 13005KT 07/M10 A3015 RMK A01 T00711097  RH  029%=      5-min Rain = 0
KNH1 130010Z 13005KT 07/M10 A3015 RMK A01 T00701097  RH  029%=      5-min Rain = 0
KNH1 130011Z 13005KT 07/M10 A3016 RMK A01 T00691097  RH  029%=      5-min Rain = 0
KNH1 130012Z 12005KT 07/M10 A3016 RMK A01 T00691097  RH  029%=      5-min Rain = 0
KNH1 130013Z 12005KT 07/M10 A3016 RMK A01 T00681097  RH  030%=      5-min Rain = 0
KNH1 130014Z 12005KT 07/M10 A3016 RMK A01 T00681097  RH  030%=      5-min Rain = 0
KNH1 130015Z 12005KT 07/M10 A3016 RMK A01 T00671097  RH  030%=      5-min Rain = 0
KNH1 130016Z 12005KT 07/M10 A3016 RMK A01 T00661096  RH  030%=      5-min Rain = 0
KNH1 130017Z 12005KT 07/M10 A3016 RMK A01 T00661095  RH  031%=      5-min Rain = 0
KNH1 130018Z 12004KT 07/M10 A3016 RMK A01 T00651096  RH  031%=      5-min Rain = 0
KNH1 130019Z 13005KT 06/M10 A3016 RMK A01 T00641096  RH  031%=      5-min Rain = 0
KNH1 130020Z 12004KT 06/M10 A3016 RMK A01 T00641095  RH  031%=      5-min Rain = 0
KNH1 130021Z 13004KT 06/M10 A3016 RMK A01 T00631096  RH  031%=      5-min Rain = 0
KNH1 130022Z 12005KT 06/M10 A3016 RMK A01 T00621097  RH  031%=      5-min Rain = 0
KNH1 130023Z 12005KT 06/M10 A3016 RMK A01 T00621097  RH  031%=      5-min Rain = 0
KNH1 130024Z 12005KT 06/M10 A3016 RMK A01 T00611098  RH  031%=      5-min Rain = 0
KNH1 130025Z 12005KT 06/M10 A3016 RMK A01 T00601098  RH  031%=      5-min Rain = 0
KNH1 130026Z 12005KT 06/M10 A3016 RMK A01 T00591099  RH  031%=      5-min Rain = 0
KNH1 130027Z 12005KT 06/M10 A3017 RMK A01 T00591099  RH  031%=      5-min Rain = 0
KNH1 130028Z 13005KT 06/M10 A3017 RMK A01 T00581099  RH  031%=      5-min Rain = 0
KNH1 130029Z 12004KT 06/M10 A3017 RMK A01 T00571100  RH  031%=      5-min Rain = 0
KNH1 130030Z 13004KT 06/M10 A3017 RMK A01 T00561100  RH  031%=      5-min Rain = 0
KNH1 130031Z 13005KT 06/M10 A3017 RMK A01 T00551101  RH  032%=      5-min Rain = 0
KNH1 130032Z 13005KT 05/M10 A3017 RMK A01 T00541101  RH  032%=      5-min Rain = 0
KNH1 130033Z 13005KT 05/M10 A3017 RMK A01 T00531101  RH  032%=      5-min Rain = 0
KNH1 130034Z 13005KT 05/M10 A3017 RMK A01 T00531101  RH  032%=      5-min Rain = 0
KNH1 130035Z 13005KT 05/M10 A3017 RMK A01 T00511101  RH  032%=      5-min Rain = 0
KNH1 130036Z 12005KT 05/M10 A3017 RMK A01 T00511101  RH  032%=      5-min Rain = 0
KNH1 130037Z 13005KT 05/M10 A3017 RMK A01 T00511101  RH  032%=      5-min Rain = 0
KNH1 130038Z 13005KT 05/M10 A3017 RMK A01 T00501101  RH  033%=      5-min Rain = 0
KNH1 130039Z 13006KT 05/M10 A3017 RMK A01 T00501101  RH  033%=      5-min Rain = 0
KNH1 130040Z 12006KT 05/M10 A3017 RMK A01 T00501101  RH  033%=      5-min Rain = 0
KNH1 130041Z 13006KT 05/M10 A3017 RMK A01 T00501100  RH  033%=      5-min Rain = 0
KNH1 130042Z 12005KT 05/M10 A3017 RMK A01 T00501100  RH  033%=      5-min Rain = 0
KNH1 130043Z 12007KT 05/M10 A3017 RMK A01 T00501100  RH  033%=      5-min Rain = 0
KNH1 130044Z 12006KT 05/M10 A3017 RMK A01 T00501101  RH  033%=      5-min Rain = 0
KNH1 130045Z 12006KT 05/M10 A3017 RMK A01 T00501101  RH  033%=      5-min Rain = 0
KNH1 130046Z 12006KT 05/M10 A3017 RMK A01 T00501101  RH  033%=      5-min Rain = 0
KNH1 130047Z 12005KT 05/M10 A3017 RMK A01 T00501101  RH  033%=      5-min Rain = 0
KNH1 130048Z 12006KT 05/M10 A3017 RMK A01 T00501101  RH  033%=      5-min Rain = 0
KNH1 130049Z 12005KT 05/M10 A3017 RMK A01 T00491102  RH  033%=      5-min Rain = 0
KNH1 130050Z 12006KT 05/M10 A3017 RMK A01 T00491102  RH  033%=      5-min Rain = 0
KNH1 130051Z 13006KT 05/M10 A3017 RMK A01 T00481102  RH  033%=      5-min Rain = 0
KNH1 130052Z 12006KT 05/M10 A3017 RMK A01 T00481102  RH  033%=      5-min Rain = 0
KNH1 130053Z 13006KT 05/M10 A3017 RMK A01 T00471103  RH  033%=      5-min Rain = 0
KNH1 130054Z 13006KT 05/M10 A3017 RMK A01 T00471103  RH  033%=      5-min Rain = 0
KNH1 130055Z 12005KT 05/M10 A3017 RMK A01 T00471103  RH  033%=      5-min Rain = 0
KNH1 130056Z 12006KT 05/M10 A3017 RMK A01 T00471104  RH  033%=      5-min Rain = 0
KNH1 130057Z 13005KT 05/M10 A3017 RMK A01 T00471104  RH  032%=      5-min Rain = 0
KNH1 130058Z 13005KT 05/M11 A3017 RMK A01 T00461105  RH  032%=      5-min Rain = 0
KNH1 130059Z 13007KT 05/M11 A3017 RMK A01 T00461105  RH  032%=      5-min Rain = 0
KNH1 130100Z 12007KT 05/M11 A3017 RMK A01 T00471105  RH  032%=      5-min Rain = 0
KNH1 130101Z 12007KT 05/M11 A3017 RMK A01 T00461105  RH  032%=      5-min Rain = 0
KNH1 130102Z 12007KT 05/M11 A3018 RMK A01 T00461106  RH  032%=      5-min Rain = 0
KNH1 130103Z 12007KT 05/M11 A3018 RMK A01 T00461106  RH  032%=      5-min Rain = 0
KNH1 130104Z 12008KT 05/M11 A3018 RMK A01 T00461106  RH  032%=      5-min Rain = 0
KNH1 130105Z 12007KT 05/M11 A3018 RMK A01 T00471106  RH  032%=      5-min Rain = 0
KNH1 130106Z 12007KT 05/M11 A3018 RMK A01 T00471107  RH  032%=      5-min Rain = 0
KNH1 130107Z 12007KT 05/M11 A3017 RMK A01 T00461107  RH  032%=      5-min Rain = 0
KNH1 130108Z 12007KT 05/M11 A3017 RMK A01 T00461107  RH  032%=      5-min Rain = 0
KNH1 130109Z 12007KT 05/M11 A3017 RMK A01 T00461108  RH  032%=      5-min Rain = 0
KNH1 130110Z 12007KT 05/M11 A3017 RMK A01 T00451108  RH  032%=      5-min Rain = 0
KNH1 130111Z 13007KT 05/M11 A3017 RMK A01 T00451108  RH  032%=      5-min Rain = 0
KNH1 130112Z 13007KT 04/M11 A3018 RMK A01 T00441108  RH  032%=      5-min Rain = 0
KNH1 130113Z 13008KT 04/M11 A3018 RMK A01 T00441108  RH  032%=      5-min Rain = 0
KNH1 130114Z 12007KT 04/M11 A3018 RMK A01 T00441108  RH  032%=      5-min Rain = 0
KNH1 130115Z 12009KT 04/M11 A3018 RMK A01 T00441108  RH  032%=      5-min Rain = 0
KNH1 130116Z 12010KT 04/M11 A3018 RMK A01 T00441109  RH  032%=      5-min Rain = 0
KNH1 130117Z 12008KT 04/M11 A3018 RMK A01 T00441109  RH  032%=      5-min Rain = 0
KNH1 130118Z 12007KT 05/M11 A3018 RMK A01 T00451109  RH  032%=      5-min Rain = 0
KNH1 130119Z 12008KT 05/M11 A3018 RMK A01 T00451109  RH  032%=      5-min Rain = 0
KNH1 130120Z 12008KT 04/M11 A3018 RMK A01 T00441110  RH  032%=      5-min Rain = 0
KNH1 130121Z 11009KT 04/M11 A3018 RMK A01 T00431110  RH  032%=      5-min Rain = 0
KNH1 130122Z 11008KT 04/M11 A3018 RMK A01 T00431110  RH  032%=      5-min Rain = 0
KNH1 130123Z 11010KT 04/M11 A3018 RMK A01 T00431110  RH  032%=      5-min Rain = 0
KNH1 130124Z 12010KT 04/M11 A3019 RMK A01 T00431110  RH  032%=      5-min Rain = 0
KNH1 130125Z 11009KT 04/M11 A3019 RMK A01 T00431110  RH  032%=      5-min Rain = 0
KNH1 130126Z 11009KT 04/M11 A3019 RMK A01 T00421111  RH  032%=      5-min Rain = 0
KNH1 130127Z 11009KT 04/M11 A3019 RMK A01 T00411110  RH  032%=      5-min Rain = 0
KNH1 130128Z 11007KT 04/M11 A3019 RMK A01 T00411110  RH  032%=      5-min Rain = 0
KNH1 130129Z 10007KT 04/M11 A3019 RMK A01 T00401110  RH  032%=      5-min Rain = 0
KNH1 130130Z 10008KT 04/M11 A3019 RMK A01 T00401110  RH  033%=      5-min Rain = 0
KNH1 130131Z 10009KT 04/M11 A302 RMK A01 T00401110  RH  033%=      5-min Rain = 0
KNH1 130132Z 10008KT 04/M11 A302 RMK A01 T00401110  RH  033%=      5-min Rain = 0
KNH1 130133Z 10008KT 04/M11 A302 RMK A01 T00391110  RH  033%=      5-min Rain = 0
KNH1 130134Z 10009KT 04/M11 A302 RMK A01 T00381111  RH  033%=      5-min Rain = 0
KNH1 130135Z 10008KT 04/M11 A302 RMK A01 T00381111  RH  033%=      5-min Rain = 0
KNH1 130136Z 11007KT 04/M11 A302 RMK A01 T00381111  RH  033%=      5-min Rain = 0
KNH1 130137Z 12009KT 04/M11 A302 RMK A01 T00371111  RH  033%=      5-min Rain = 0
KNH1 130138Z 11010KT 04/M11 A302 RMK A01 T00371112  RH  033%=      5-min Rain = 0
KNH1 130139Z 11009KT 04/M11 A302 RMK A01 T00371112  RH  033%=      5-min Rain = 0
KNH1 130140Z 12009KT 04/M11 A302 RMK A01 T00371112  RH  033%=      5-min Rain = 0
KNH1 130141Z 12008KT 04/M11 A302 RMK A01 T00371113  RH  033%=      5-min Rain = 0
KNH1 130142Z 12009KT 04/M11 A302 RMK A01 T00371113  RH  032%=      5-min Rain = 0
KNH1 130143Z 12009KT 04/M11 A302 RMK A01 T00371113  RH  033%=      5-min Rain = 0
KNH1 130144Z 11009KT 04/M11 A302 RMK A01 T00371113  RH  032%=      5-min Rain = 0
KNH1 130145Z 11009KT 04/M11 A302 RMK A01 T00371113  RH  032%=      5-min Rain = 0
KNH1 130146Z 11007KT 04/M11 A302 RMK A01 T00371113  RH  032%=      5-min Rain = 0
KNH1 130147Z 11007KT 04/M11 A3021 RMK A01 T00361114  RH  032%=      5-min Rain = 0
KNH1 130148Z 10008KT 04/M11 A3021 RMK A01 T00361113  RH  033%=      5-min Rain = 0
KNH1 130149Z 10010KT 04/M11 A3021 RMK A01 T00351114  RH  033%=      5-min Rain = 0
KNH1 130150Z 10009KT 04/M11 A3021 RMK A01 T00351114  RH  033%=      5-min Rain = 0
KNH1 130151Z 10009KT 04/M11 A3021 RMK A01 T00351114  RH  033%=      5-min Rain = 0
KNH1 130152Z 11008G14KT 04/M11 A3021 RMK A01 T00351113  RH  033%=      5-min Rain = 0
KNH1 130153Z 11010KT 04/M11 A302 RMK A01 T00351113  RH  033%=      5-min Rain = 0
KNH1 130154Z 11009KT 04/M11 A302 RMK A01 T00351113  RH  033%=      5-min Rain = 0
KNH1 130155Z 11011G17KT 04/M11 A302 RMK A01 T00351113  RH  033%=      5-min Rain = 0
KNH1 130156Z 11010KT 04/M11 A302 RMK A01 T00351113  RH  033%=      5-min Rain = 0
KNH1 130157Z 11010KT 04/M11 A302 RMK A01 T00351113  RH  033%=      5-min Rain = 0
KNH1 130158Z 10009KT 03/M11 A302 RMK A01 T00341113  RH  033%=      5-min Rain = 0
KNH1 130159Z 11009KT 03/M11 A3021 RMK A01 T00331114  RH  033%=      5-min Rain = 0
KNH1 130200Z 11011G16KT 03/M11 A3021 RMK A01 T00331113  RH  033%=      5-min Rain = 0
KNH1 130201Z 11010KT 03/M11 A3021 RMK A01 T00331113  RH  033%=      5-min Rain = 0
KNH1 130202Z 11010KT 03/M11 A3021 RMK A01 T00331114  RH  033%=      5-min Rain = 0
KNH1 130203Z 10011KT 03/M11 A3021 RMK A01 T00321114  RH  033%=      5-min Rain = 0
KNH1 130204Z 10011KT 03/M11 A3021 RMK A01 T00321114  RH  033%=      5-min Rain = 0
KNH1 130205Z 10011KT 03/M11 A3021 RMK A01 T00311114  RH  033%=      5-min Rain = 0
KNH1 130206Z 10011KT 03/M12 A3021 RMK A01 T00311115  RH  034%=      5-min Rain = 0
KNH1 130207Z 10011KT 03/M11 A3021 RMK A01 T00301114  RH  034%=      5-min Rain = 0
KNH1 130208Z 10010G15KT 03/M11 A3022 RMK A01 T00301114  RH  034%=      5-min Rain = 0
KNH1 130209Z 11008KT 03/M12 A3022 RMK A01 T00301115  RH  034%=      5-min Rain = 0
KNH1 130210Z 10007G13KT 03/M12 A3022 RMK A01 T00291115  RH  034%=      5-min Rain = 0
KNH1 130211Z 11009KT 03/M12 A3022 RMK A01 T00281115  RH  034%=      5-min Rain = 0
KNH1 130212Z 10010KT 03/M12 A3022 RMK A01 T00281115  RH  034%=      5-min Rain = 0
KNH1 130213Z 11010KT 03/M12 A3022 RMK A01 T00281115  RH  034%=      5-min Rain = 0
KNH1 130214Z 11010KT 03/M12 A3022 RMK A01 T00281115  RH  034%=      5-min Rain = 0
KNH1 130215Z 10010G15KT 03/M12 A3022 RMK A01 T00281115  RH  034%=      5-min Rain = 0
KNH1 130216Z 10011KT 03/M12 A3022 RMK A01 T00281115  RH  034%=      5-min Rain = 0
KNH1 130217Z 10010KT 03/M12 A3023 RMK A01 T00281115  RH  034%=      5-min Rain = 0
KNH1 130218Z 10012KT 03/M12 A3023 RMK A01 T00281116  RH  034%=      5-min Rain = 0
KNH1 130219Z 10011KT 03/M12 A3023 RMK A01 T00271116  RH  034%=      5-min Rain = 0
KNH1 130220Z 09011KT 03/M12 A3023 RMK A01 T00271116  RH  034%=      5-min Rain = 0
KNH1 130221Z 10011KT 03/M12 A3024 RMK A01 T00261116  RH  034%=      5-min Rain = 0
KNH1 130222Z 10012KT 03/M12 A3024 RMK A01 T00261117  RH  034%=      5-min Rain = 0
KNH1 130223Z 10011KT 03/M12 A3023 RMK A01 T00261116  RH  034%=      5-min Rain = 0
KNH1 130224Z 10010KT 03/M12 A3023 RMK A01 T00261116  RH  034%=      5-min Rain = 0
KNH1 130225Z 10010G16KT 03/M12 A3023 RMK A01 T00251117  RH  034%=      5-min Rain = 0
KNH1 130226Z 10009G14KT 03/M12 A3023 RMK A01 T00251117  RH  034%=      5-min Rain = 0
KNH1 130227Z 10009KT 03/M12 A3023 RMK A01 T00251117  RH  034%=      5-min Rain = 0
KNH1 130228Z 10010KT 02/M12 A3024 RMK A01 T00241117  RH  034%=      5-min Rain = 0
KNH1 130229Z 10010KT 02/M12 A3024 RMK A01 T00241117  RH  034%=      5-min Rain = 0
KNH1 130230Z 10012KT 02/M12 A3024 RMK A01 T00241117  RH  034%=      5-min Rain = 0
KNH1 130231Z 11011G16KT 02/M12 A3024 RMK A01 T00241117  RH  034%=      5-min Rain = 0
KNH1 130232Z 10010KT 02/M12 A3024 RMK A01 T00241117  RH  034%=      5-min Rain = 0
KNH1 130233Z 10009KT 02/M12 A3024 RMK A01 T00231118  RH  034%=      5-min Rain = 0
KNH1 130234Z 11009KT 02/M12 A3024 RMK A01 T00231118  RH  034%=      5-min Rain = 0
KNH1 130235Z 10010G15KT 02/M12 A3024 RMK A01 T00231118  RH  035%=      5-min Rain = 0
KNH1 130236Z 10009KT 02/M12 A3024 RMK A01 T00221118  RH  035%=      5-min Rain = 0
KNH1 130237Z 10009KT 02/M12 A3024 RMK A01 T00221118  RH  035%=      5-min Rain = 0
KNH1 130238Z 10009KT 02/M12 A3024 RMK A01 T00221119  RH  035%=      5-min Rain = 0
KNH1 130239Z 10011KT 02/M12 A3025 RMK A01 T00221118  RH  035%=      5-min Rain = 0
KNH1 130240Z 10012KT 02/M12 A3025 RMK A01 T00211119  RH  035%=      5-min Rain = 0
KNH1 130241Z 10011G16KT 02/M12 A3025 RMK A01 T00211119  RH  035%=      5-min Rain = 0
KNH1 130242Z 10010KT 02/M12 A3025 RMK A01 T00211119  RH  035%=      5-min Rain = 0
KNH1 130243Z 10008KT 02/M12 A3025 RMK A01 T00211119  RH  035%=      5-min Rain = 0
KNH1 130244Z 10010KT 02/M12 A3025 RMK A01 T00211119  RH  035%=      5-min Rain = 0
KNH1 130245Z 10011KT 02/M12 A3025 RMK A01 T00211119  RH  035%=      5-min Rain = 0
KNH1 130246Z 09013KT 02/M12 A3025 RMK A01 T00211119  RH  035%=      5-min Rain = 0
KNH1 130247Z 09011KT 02/M12 A3025 RMK A01 T00211119  RH  035%=      5-min Rain = 0
KNH1 130248Z 09011KT 02/M12 A3026 RMK A01 T00201120  RH  035%=      5-min Rain = 0
KNH1 130249Z 09012KT 02/M12 A3026 RMK A01 T00201120  RH  035%=      5-min Rain = 0
KNH1 130250Z 09012KT 02/M12 A3026 RMK A01 T00201119  RH  035%=      5-min Rain = 0
KNH1 130251Z 09011KT 02/M12 A3026 RMK A01 T00201120  RH  035%=      5-min Rain = 0
KNH1 130252Z 10011KT 02/M12 A3027 RMK A01 T00191120  RH  035%=      5-min Rain = 0
KNH1 130253Z 09009KT 02/M12 A3027 RMK A01 T00191120  RH  035%=      5-min Rain = 0
KNH1 130254Z 10009KT 02/M12 A3027 RMK A01 T00191120  RH  035%=      5-min Rain = 0
KNH1 130255Z 09010KT 02/M12 A3027 RMK A01 T00181121  RH  035%=      5-min Rain = 0
KNH1 130256Z 09011KT 02/M12 A3027 RMK A01 T00181121  RH  035%=      5-min Rain = 0
KNH1 130257Z 09011KT 02/M12 A3027 RMK A01 T00181121  RH  035%=      5-min Rain = 0
KNH1 130258Z 09011KT 02/M12 A3027 RMK A01 T00181121  RH  035%=      5-min Rain = 0
KNH1 130259Z 09012KT 02/M12 A3028 RMK A01 T00181121  RH  035%=      5-min Rain = 0
KNH1 130300Z 08013KT 02/M12 A3028 RMK A01 T00181122  RH  035%=      5-min Rain = 0
KNH1 130301Z 09012KT 02/M12 A3028 RMK A01 T00181122  RH  035%=      5-min Rain = 0
KNH1 130302Z 09014KT 02/M12 A3028 RMK A01 T00171122  RH  035%=      5-min Rain = 0
KNH1 130303Z 08013KT 02/M12 A3028 RMK A01 T00171122  RH  035%=      5-min Rain = 0
KNH1 130304Z 09010KT 02/M12 A3028 RMK A01 T00171122  RH  035%=      5-min Rain = 0
KNH1 130305Z 09011KT 02/M12 A3028 RMK A01 T00171122  RH  035%=      5-min Rain = 0
KNH1 130306Z 09013KT 02/M12 A3028 RMK A01 T00171122  RH  035%=      5-min Rain = 0
KNH1 130307Z 09010KT 02/M12 A3028 RMK A01 T00171122  RH  035%=      5-min Rain = 0
KNH1 130308Z 09012KT 02/M12 A3028 RMK A01 T00171122  RH  035%=      5-min Rain = 0
KNH1 130309Z 09011KT 02/M12 A3029 RMK A01 T00161122  RH  035%=      5-min Rain = 0
KNH1 130310Z 09010KT 02/M12 A3029 RMK A01 T00161122  RH  035%=      5-min Rain = 0
KNH1 130311Z 09012KT 02/M12 A3029 RMK A01 T00151123  RH  035%=      5-min Rain = 0
KNH1 130312Z 09011KT 02/M12 A3029 RMK A01 T00151122  RH  035%=      5-min Rain = 0
KNH1 130313Z 10012KT 02/M12 A3028 RMK A01 T00151122  RH  035%=      5-min Rain = 0
KNH1 130314Z 09011KT 02/M12 A3029 RMK A01 T00151122  RH  035%=      5-min Rain = 0
KNH1 130315Z 09011KT 02/M12 A3029 RMK A01 T00151122  RH  035%=      5-min Rain = 0
KNH1 130316Z 09010G16KT 02/M12 A3029 RMK A01 T00151122  RH  035%=      5-min Rain = 0
KNH1 130317Z 09010KT 02/M12 A3029 RMK A01 T00151122  RH  035%=      5-min Rain = 0
KNH1 130318Z 09012KT 01/M12 A3029 RMK A01 T00141122  RH  035%=      5-min Rain = 0
KNH1 130319Z 09013KT 01/M12 A3029 RMK A01 T00141122  RH  035%=      5-min Rain = 0
KNH1 130320Z 09012KT 02/M12 A3029 RMK A01 T00151122  RH  035%=      5-min Rain = 0
KNH1 130321Z 09012KT 01/M12 A3029 RMK A01 T00141123  RH  035%=      5-min Rain = 0
KNH1 130322Z 09010G15KT 01/M12 A303 RMK A01 T00141123  RH  035%=      5-min Rain = 0
KNH1 130323Z 08013KT 01/M12 A303 RMK A01 T00141123  RH  035%=      5-min Rain = 0
KNH1 130324Z 09011KT 01/M12 A303 RMK A01 T00141123  RH  035%=      5-min Rain = 0
KNH1 130325Z 08011KT 01/M12 A303 RMK A01 T00141123  RH  035%=      5-min Rain = 0
KNH1 130326Z 08011KT 01/M12 A303 RMK A01 T00131123  RH  035%=      5-min Rain = 0
KNH1 130327Z 09012KT 01/M12 A303 RMK A01 T00131123  RH  035%=      5-min Rain = 0
KNH1 130328Z 09012KT 01/M12 A3031 RMK A01 T00141122  RH  036%=      5-min Rain = 0
KNH1 130329Z 08012KT 01/M12 A3031 RMK A01 T00131123  RH  036%=      5-min Rain = 0
KNH1 130330Z 08011KT 01/M12 A3031 RMK A01 T00131123  RH  036%=      5-min Rain = 0
KNH1 130331Z 08013KT 01/M12 A3031 RMK A01 T00131123  RH  036%=      5-min Rain = 0
KNH1 130332Z 08012KT 01/M12 A3031 RMK A01 T00131123  RH  036%=      5-min Rain = 0
KNH1 130333Z 08013KT 01/M12 A3031 RMK A01 T00131123  RH  036%=      5-min Rain = 0
KNH1 130334Z 07013KT 01/M12 A3031 RMK A01 T00121123  RH  036%=      5-min Rain = 0
KNH1 130335Z 08014KT 01/M12 A3031 RMK A01 T00121122  RH  036%=      5-min Rain = 0
KNH1 130336Z 08012KT 01/M12 A3031 RMK A01 T00121122  RH  036%=      5-min Rain = 0
KNH1 130337Z 08012KT 01/M12 A3031 RMK A01 T00121122  RH  036%=      5-min Rain = 0
KNH1 130338Z 08014KT 01/M12 A3031 RMK A01 T00121122  RH  036%=      5-min Rain = 0
KNH1 130339Z 08013KT 01/M12 A3032 RMK A01 T00111122  RH  036%=      5-min Rain = 0
KNH1 130340Z 08015KT 01/M12 A3032 RMK A01 T00111122  RH  036%=      5-min Rain = 0
KNH1 130341Z 08016KT 01/M12 A3032 RMK A01 T00111122  RH  036%=      5-min Rain = 0
KNH1 130342Z 08015KT 01/M12 A3032 RMK A01 T00111122  RH  036%=      5-min Rain = 0
KNH1 130343Z 08013KT 01/M12 A3032 RMK A01 T00111122  RH  036%=      5-min Rain = 0
KNH1 130344Z 08014KT 01/M12 A3032 RMK A01 T00101122  RH  036%=      5-min Rain = 0
KNH1 130345Z 08012KT 01/M12 A3032 RMK A01 T00101122  RH  037%=      5-min Rain = 0
KNH1 130346Z 08012KT 01/M12 A3032 RMK A01 T00101122  RH  037%=      5-min Rain = 0
KNH1 130347Z 08013KT 01/M12 A3032 RMK A01 T00101122  RH  037%=      5-min Rain = 0
KNH1 130348Z 08013KT 01/M12 A3032 RMK A01 T00091122  RH  037%=      5-min Rain = 0
KNH1 130349Z 08012KT 01/M12 A3032 RMK A01 T00091122  RH  037%=      5-min Rain = 0
KNH1 130350Z 08011KT 01/M12 A3032 RMK A01 T00091121  RH  037%=      5-min Rain = 0
KNH1 130351Z 08010KT 01/M12 A3032 RMK A01 T00091122  RH  037%=      5-min Rain = 0
KNH1 130352Z 08010KT 01/M12 A3032 RMK A01 T00091122  RH  037%=      5-min Rain = 0
KNH1 130353Z 08013KT 01/M12 A3032 RMK A01 T00091121  RH  037%=      5-min Rain = 0
KNH1 130354Z 08011KT 01/M12 A3033 RMK A01 T00091121  RH  037%=      5-min Rain = 0
KNH1 130355Z 08012KT 01/M12 A3033 RMK A01 T00081122  RH  037%=      5-min Rain = 0
KNH1 130356Z 08011G16KT 01/M12 A3033 RMK A01 T00081122  RH  037%=      5-min Rain = 0
KNH1 130357Z 08011KT 01/M12 A3033 RMK A01 T00081121  RH  037%=      5-min Rain = 0
KNH1 130358Z 08009KT 01/M12 A3033 RMK A01 T00081121  RH  037%=      5-min Rain = 0
KNH1 130359Z 08012KT 01/M12 A3033 RMK A01 T00071122  RH  037%=      5-min Rain = 0
KNH1 130400Z 08013KT 01/M12 A3033 RMK A01 T00071122  RH  037%=      5-min Rain = 0
KNH1 130401Z 08013KT 01/M12 A3034 RMK A01 T00071122  RH  037%=      5-min Rain = 0
KNH1 130402Z 08015KT 01/M12 A3033 RMK A01 T00071122  RH  038%=      5-min Rain = 0
KNH1 130403Z 08014KT 01/M12 A3033 RMK A01 T00061123  RH  037%=      5-min Rain = 0
KNH1 130404Z 08014KT 01/M12 A3034 RMK A01 T00061123  RH  037%=      5-min Rain = 0
KNH1 130405Z 07015KT 01/M12 A3034 RMK A01 T00051122  RH  038%=      5-min Rain = 0
KNH1 130406Z 08015KT 01/M12 A3034 RMK A01 T00051122  RH  038%=      5-min Rain = 0
KNH1 130407Z 08015KT 01/M12 A3034 RMK A01 T00051121  RH  038%=      5-min Rain = 0
KNH1 130408Z 08014KT 00/M12 A3034 RMK A01 T00041121  RH  039%=      5-min Rain = 0
KNH1 130409Z 09015KT 00/M12 A3033 RMK A01 T00031121  RH  039%=      5-min Rain = 0
KNH1 130410Z 08016G21KT 00/M12 A3033 RMK A01 T00031121  RH  039%=      5-min Rain = 0
KNH1 130411Z 09017KT 00/M12 A3033 RMK A01 T00031120  RH  039%=      5-min Rain = 0
KNH1 130412Z 09014KT 00/M12 A3034 RMK A01 T00021120  RH  039%=      5-min Rain = 0
KNH1 130413Z 09011KT 00/M12 A3034 RMK A01 T00021120  RH  039%=      5-min Rain = 0
KNH1 130414Z 09013KT 00/M12 A3034 RMK A01 T00011120  RH  040%=      5-min Rain = 0
KNH1 130415Z 09011KT 00/M12 A3034 RMK A01 T00011120  RH  040%=      5-min Rain = 0
KNH1 130416Z 08011KT 00/M12 A3034 RMK A01 T00011120  RH  040%=      5-min Rain = 0
KNH1 130417Z 09011KT 00/12 A3034 RMK A01 T00000-120  RH  040%=      5-min Rain = 0
KNH1 130418Z 08011KT 00/12 A3034 RMK A01 T00-00-120  RH  040%=      5-min Rain = 0
KNH1 130419Z 08013KT 00/12 A3034 RMK A01 T00-00-119  RH  040%=      5-min Rain = 0
KNH1 130420Z 08012KT M00/M12 A3034 RMK A01 T10011120  RH  040%=      5-min Rain = 0
KNH1 130421Z 08012KT M00/M12 A3034 RMK A01 T10011120  RH  040%=      5-min Rain = 0
KNH1 130422Z 08012KT M00/M12 A3035 RMK A01 T10011120  RH  040%=      5-min Rain = 0
KNH1 130423Z 08013KT M00/M12 A3035 RMK A01 T10021120  RH  041%=      5-min Rain = 0
KNH1 130424Z 09013KT M00/M12 A3035 RMK A01 T10021120  RH  041%=      5-min Rain = 0
KNH1 130425Z 09013KT M00/M12 A3035 RMK A01 T10021120  RH  041%=      5-min Rain = 0
KNH1 130426Z 08015KT M00/M12 A3034 RMK A01 T10021120  RH  041%=      5-min Rain = 0
KNH1 130427Z 08015KT M00/M12 A3035 RMK A01 T10031120  RH  041%=      5-min Rain = 0
KNH1 130428Z 07013KT M00/M12 A3035 RMK A01 T10031120  RH  041%=      5-min Rain = 0
KNH1 130429Z 08013KT M00/M12 A3035 RMK A01 T10031120  RH  041%=      5-min Rain = 0
KNH1 130430Z 08013KT M00/M12 A3035 RMK A01 T10031120  RH  041%=      5-min Rain = 0
KNH1 130431Z 08011KT M00/M12 A3035 RMK A01 T10041120  RH  041%=      5-min Rain = 0
KNH1 130432Z 08010KT M01/M12 A3035 RMK A01 T10051120  RH  041%=      5-min Rain = 0
KNH1 130433Z 08011KT M01/M12 A3035 RMK A01 T10051120  RH  041%=      5-min Rain = 0
KNH1 130434Z 09010KT M01/M12 A3035 RMK A01 T10051120  RH  041%=      5-min Rain = 0
KNH1 130435Z 09013KT M01/M12 A3035 RMK A01 T10061120  RH  042%=      5-min Rain = 0
KNH1 130436Z 08011KT M01/M12 A3035 RMK A01 T10061120  RH  042%=      5-min Rain = 0
KNH1 130437Z 09011KT M01/M12 A3035 RMK A01 T10061120  RH  042%=      5-min Rain = 0
KNH1 130438Z 08011KT M01/M12 A3035 RMK A01 T10061120  RH  042%=      5-min Rain = 0
KNH1 130439Z 09012KT M01/M12 A3036 RMK A01 T10061120  RH  042%=      5-min Rain = 0
KNH1 130440Z 08011KT M01/M12 A3036 RMK A01 T10061120  RH  042%=      5-min Rain = 0
KNH1 130441Z 08011KT M01/M12 A3036 RMK A01 T10061120  RH  042%=      5-min Rain = 0
KNH1 130442Z 07011KT M01/M12 A3037 RMK A01 T10061120  RH  042%=      5-min Rain = 0
KNH1 130443Z 07012KT M01/M12 A3037 RMK A01 T10061120  RH  042%=      5-min Rain = 0
KNH1 130444Z 07013KT M01/M12 A3037 RMK A01 T10061120  RH  042%=      5-min Rain = 0
KNH1 130445Z 07012KT M01/M12 A3037 RMK A01 T10071120  RH  042%=      5-min Rain = 0
KNH1 130446Z 08011KT M01/M12 A3036 RMK A01 T10071121  RH  042%=      5-min Rain = 0
KNH1 130447Z 08011KT M01/M12 A3036 RMK A01 T10071121  RH  042%=      5-min Rain = 0
KNH1 130448Z 08010KT M01/M12 A3036 RMK A01 T10071121  RH  042%=      5-min Rain = 0
KNH1 130449Z 08010KT M01/M12 A3036 RMK A01 T10071121  RH  042%=      5-min Rain = 0
KNH1 130450Z 08010KT M01/M12 A3036 RMK A01 T10081121  RH  042%=      5-min Rain = 0
KNH1 130451Z 08012KT M01/M12 A3036 RMK A01 T10081121  RH  042%=      5-min Rain = 0
KNH1 130452Z 08013KT M01/M12 A3037 RMK A01 T10081121  RH  042%=      5-min Rain = 0
KNH1 130453Z 08013KT M01/M12 A3037 RMK A01 T10071120  RH  042%=      5-min Rain = 0
KNH1 130454Z 08013KT M01/M12 A3036 RMK A01 T10081121  RH  042%=      5-min Rain = 0
KNH1 130455Z 08015KT M01/M12 A3036 RMK A01 T10081121  RH  042%=      5-min Rain = 0
KNH1 130456Z 08013KT M01/M12 A3037 RMK A01 T10081121  RH  042%=      5-min Rain = 0
KNH1 130457Z 08015KT M01/M12 A3037 RMK A01 T10071121  RH  042%=      5-min Rain = 0
KNH1 130458Z 08013KT M01/M12 A3037 RMK A01 T10081121  RH  042%=      5-min Rain = 0
KNH1 130459Z 08013KT M01/M12 A3037 RMK A01 T10081121  RH  042%=      5-min Rain = 0
KNH1 130500Z 08012KT M01/M12 A3037 RMK A01 T10071121  RH  042%=      5-min Rain = 0
KNH1 130501Z 08013KT M01/M12 A3037 RMK A01 T10081121  RH  042%=      5-min Rain = 0
KNH1 130502Z 08012KT M01/M12 A3037 RMK A01 T10081122  RH  042%=      5-min Rain = 0
KNH1 130503Z 08014KT M01/M12 A3038 RMK A01 T10081122  RH  042%=      5-min Rain = 0
KNH1 130504Z 08013KT M01/M12 A3038 RMK A01 T10071121  RH  042%=      5-min Rain = 0
KNH1 130505Z 08011KT M01/M12 A3038 RMK A01 T10081122  RH  042%=      5-min Rain = 0
KNH1 130506Z 08012KT M01/M12 A3038 RMK A01 T10081122  RH  042%=      5-min Rain = 0
KNH1 130507Z 08009G14KT M01/M12 A3037 RMK A01 T10071122  RH  042%=      5-min Rain = 0
KNH1 130508Z 08011KT M01/M12 A3037 RMK A01 T10071122  RH  042%=      5-min Rain = 0
KNH1 130509Z 08013KT M01/M12 A3037 RMK A01 T10081122  RH  042%=      5-min Rain = 0
KNH1 130510Z 08013KT M01/M12 A3038 RMK A01 T10081122  RH  042%=      5-min Rain = 0
KNH1 130511Z 08012KT M01/M12 A3038 RMK A01 T10071122  RH  042%=      5-min Rain = 0
KNH1 130512Z 08013KT M01/M12 A3038 RMK A01 T10071122  RH  042%=      5-min Rain = 0
KNH1 130513Z 07011KT M01/M12 A3038 RMK A01 T10081122  RH  042%=      5-min Rain = 0
KNH1 130514Z 08012KT M01/M12 A3038 RMK A01 T10081122  RH  042%=      5-min Rain = 0
KNH1 130515Z 08015KT M01/M12 A3039 RMK A01 T10071122  RH  041%=      5-min Rain = 0
KNH1 130516Z 07012KT M01/M12 A3039 RMK A01 T10071123  RH  041%=      5-min Rain = 0
KNH1 130517Z 07011KT M01/M12 A3039 RMK A01 T10071123  RH  041%=      5-min Rain = 0
KNH1 130518Z 07013KT M01/M12 A3039 RMK A01 T10071123  RH  041%=      5-min Rain = 0
KNH1 130519Z 07010KT M01/M12 A3039 RMK A01 T10071123  RH  041%=      5-min Rain = 0
KNH1 130520Z 07009KT M01/M12 A3039 RMK A01 T10071123  RH  041%=      5-min Rain = 0
KNH1 130521Z 07011KT M01/M12 A3039 RMK A01 T10071123  RH  041%=      5-min Rain = 0
KNH1 130522Z 07013KT M01/M12 A3039 RMK A01 T10071123  RH  041%=      5-min Rain = 0
KNH1 130523Z 07012KT M01/M12 A3039 RMK A01 T10071123  RH  041%=      5-min Rain = 0
KNH1 130524Z 07014KT M01/M12 A3039 RMK A01 T10061123  RH  041%=      5-min Rain = 0
KNH1 130525Z 08012KT M01/M12 A3039 RMK A01 T10061123  RH  041%=      5-min Rain = 0
KNH1 130526Z 08011KT M01/M12 A3039 RMK A01 T10061123  RH  041%=      5-min Rain = 0
KNH1 130527Z 08011KT M01/M12 A3039 RMK A01 T10061123  RH  041%=      5-min Rain = 0
KNH1 130528Z 08012KT M01/M12 A3038 RMK A01 T10061123  RH  041%=      5-min Rain = 0
KNH1 130529Z 08010KT M01/M12 A3038 RMK A01 T10061123  RH  041%=      5-min Rain = 0
KNH1 130530Z 08013KT M01/M12 A3038 RMK A01 T10061123  RH  041%=      5-min Rain = 0
KNH1 130531Z 08010G15KT M01/M12 A3039 RMK A01 T10061123  RH  041%=      5-min Rain = 0
KNH1 130532Z 09012KT M01/M12 A3039 RMK A01 T10071123  RH  041%=      5-min Rain = 0
KNH1 130533Z 08012KT M01/M12 A3039 RMK A01 T10071123  RH  041%=      5-min Rain = 0
KNH1 130534Z 08013KT M01/M12 A3039 RMK A01 T10061123  RH  041%=      5-min Rain = 0
KNH1 130535Z 08010KT M01/M12 A3039 RMK A01 T10071123  RH  041%=      5-min Rain = 0
KNH1 130536Z 07009KT M01/M12 A3039 RMK A01 T10071123  RH  041%=      5-min Rain = 0
KNH1 130537Z 08010KT M01/M12 A3039 RMK A01 T10071123  RH  041%=      5-min Rain = 0
KNH1 130538Z 08010KT M01/M12 A3039 RMK A01 T10071123  RH  041%=      5-min Rain = 0
KNH1 130539Z 08011KT M01/M12 A3039 RMK A01 T10081123  RH  041%=      5-min Rain = 0
KNH1 130540Z 08012KT M01/M12 A304 RMK A01 T10081124  RH  041%=      5-min Rain = 0
KNH1 130541Z 07011KT M01/M12 A304 RMK A01 T10081123  RH  041%=      5-min Rain = 0
KNH1 130542Z 07010KT M01/M12 A304 RMK A01 T10071123  RH  041%=      5-min Rain = 0
KNH1 130543Z 08011KT M01/M12 A304 RMK A01 T10081124  RH  041%=      5-min Rain = 0
KNH1 130544Z 07011KT M01/M12 A304 RMK A01 T10081124  RH  041%=      5-min Rain = 0
KNH1 130545Z 08011KT M01/M12 A304 RMK A01 T10081124  RH  041%=      5-min Rain = 0
KNH1 130546Z 08010KT M01/M12 A3039 RMK A01 T10081124  RH  041%=      5-min Rain = 0
KNH1 130547Z 09009KT M01/M12 A3039 RMK A01 T10081124  RH  041%=      5-min Rain = 0
KNH1 130548Z 09009KT M01/M12 A3039 RMK A01 T10081124  RH  041%=      5-min Rain = 0
KNH1 130549Z 08010KT M01/M12 A3039 RMK A01 T10081124  RH  041%=      5-min Rain = 0
KNH1 130550Z 08010KT M01/M12 A3039 RMK A01 T10081124  RH  041%=      5-min Rain = 0
KNH1 130551Z 08010KT M01/M12 A304 RMK A01 T10091124  RH  041%=      5-min Rain = 0
KNH1 130552Z 08011KT M01/M12 A304 RMK A01 T10091124  RH  041%=      5-min Rain = 0
KNH1 130553Z 08011KT M01/M12 A304 RMK A01 T10081124  RH  041%=      5-min Rain = 0
KNH1 130554Z 08009KT M01/M12 A304 RMK A01 T10081123  RH  041%=      5-min Rain = 0
KNH1 130555Z 08009KT M01/M12 A304 RMK A01 T10091124  RH  041%=      5-min Rain = 0
KNH1 130556Z 07010KT M01/M12 A304 RMK A01 T10091124  RH  041%=      5-min Rain = 0
KNH1 130557Z 07009KT M01/M12 A304 RMK A01 T10081123  RH  041%=      5-min Rain = 0
KNH1 130558Z 07010KT M01/M12 A304 RMK A01 T10081123  RH  041%=      5-min Rain = 0
KNH1 130559Z 07010KT M01/M12 A304 RMK A01 T10091124  RH  041%=      5-min Rain = 0

Page generated in 0.0802 seconds.